Observation data for Endee on 05/23/2019      Previous  Date  Next       Current Mesonet Observations  Soil Data  Daily Summary Page  Observations in Plain Language
KEN1 230500Z 15014KT 19/02 A298 RMK A01 T01880021  RH  033%=      5-min Rain = 0
KEN1 230501Z 15015KT 19/02 A298 RMK A01 T01880024  RH  033%=      5-min Rain = 0
KEN1 230502Z 15014KT 19/03 A298 RMK A01 T01890026  RH  034%=      5-min Rain = 0
KEN1 230503Z 15013KT 19/03 A298 RMK A01 T01890028  RH  034%=      5-min Rain = 0
KEN1 230504Z 15014KT 19/03 A298 RMK A01 T01890030  RH  035%=      5-min Rain = 0
KEN1 230505Z 15015KT 19/03 A298 RMK A01 T01880031  RH  035%=      5-min Rain = 0
KEN1 230506Z 15015KT 19/03 A298 RMK A01 T01880033  RH  036%=      5-min Rain = 0
KEN1 230507Z 15015KT 19/03 A298 RMK A01 T01890034  RH  036%=      5-min Rain = 0
KEN1 230508Z 15014KT 19/04 A298 RMK A01 T01900037  RH  036%=      5-min Rain = 0
KEN1 230509Z 15014KT 19/04 A298 RMK A01 T01910039  RH  037%=      5-min Rain = 0
KEN1 230510Z 15015G20KT 19/04 A298 RMK A01 T01910041  RH  037%=      5-min Rain = 0
KEN1 230511Z 15014KT 19/04 A298 RMK A01 T01920043  RH  037%=      5-min Rain = 0
KEN1 230512Z 15014KT 19/04 A298 RMK A01 T01920044  RH  037%=      5-min Rain = 0
KEN1 230513Z 15014KT 19/05 A298 RMK A01 T01920045  RH  038%=      5-min Rain = 0
KEN1 230514Z 15016KT 19/05 A298 RMK A01 T01920047  RH  038%=      5-min Rain = 0
KEN1 230515Z 15015KT 19/05 A298 RMK A01 T01930048  RH  038%=      5-min Rain = 0
KEN1 230516Z 15015KT 19/05 A298 RMK A01 T01940049  RH  038%=      5-min Rain = 0
KEN1 230517Z 15014KT 19/05 A298 RMK A01 T01940049  RH  039%=      5-min Rain = 0
KEN1 230518Z 15014KT 19/05 A298 RMK A01 T01940050  RH  039%=      5-min Rain = 0
KEN1 230519Z 15016KT 19/05 A298 RMK A01 T01940051  RH  039%=      5-min Rain = 0
KEN1 230520Z 15016G21KT 19/05 A298 RMK A01 T01940052  RH  039%=      5-min Rain = 0
KEN1 230521Z 15015KT 20/05 A298 RMK A01 T01950052  RH  039%=      5-min Rain = 0
KEN1 230522Z 15015KT 20/05 A298 RMK A01 T01950053  RH  039%=      5-min Rain = 0
KEN1 230523Z 15015KT 20/06 A298 RMK A01 T01950055  RH  040%=      5-min Rain = 0
KEN1 230524Z 15015KT 19/05 A298 RMK A01 T01940054  RH  040%=      5-min Rain = 0
KEN1 230525Z 15015KT 19/06 A298 RMK A01 T01940055  RH  040%=      5-min Rain = 0
KEN1 230526Z 15014KT 19/06 A298 RMK A01 T01930055  RH  040%=      5-min Rain = 0
KEN1 230527Z 15016KT 19/06 A298 RMK A01 T01920056  RH  041%=      5-min Rain = 0
KEN1 230528Z 15015KT 19/06 A298 RMK A01 T01930057  RH  041%=      5-min Rain = 0
KEN1 230529Z 15017KT 19/06 A298 RMK A01 T01920057  RH  041%=      5-min Rain = 0
KEN1 230530Z 15017KT 19/06 A298 RMK A01 T01930058  RH  041%=      5-min Rain = 0
KEN1 230531Z 15017KT 19/06 A298 RMK A01 T01930059  RH  041%=      5-min Rain = 0
KEN1 230532Z 15016KT 19/06 A298 RMK A01 T01930059  RH  041%=      5-min Rain = 0
KEN1 230533Z 15015KT 19/06 A298 RMK A01 T01930060  RH  042%=      5-min Rain = 0
KEN1 230534Z 15015KT 19/06 A298 RMK A01 T01920060  RH  042%=      5-min Rain = 0
KEN1 230535Z 15016KT 19/06 A298 RMK A01 T01910061  RH  042%=      5-min Rain = 0
KEN1 230536Z 15016KT 19/06 A298 RMK A01 T01910062  RH  043%=      5-min Rain = 0
KEN1 230537Z 15016KT 19/06 A298 RMK A01 T01910062  RH  043%=      5-min Rain = 0
KEN1 230538Z 15015KT 19/06 A298 RMK A01 T01910063  RH  043%=      5-min Rain = 0
KEN1 230539Z 15016G21KT 19/06 A298 RMK A01 T01920064  RH  043%=      5-min Rain = 0
KEN1 230540Z 15017KT 19/07 A298 RMK A01 T01910065  RH  044%=      5-min Rain = 0
KEN1 230541Z 15015KT 19/07 A298 RMK A01 T01920065  RH  044%=      5-min Rain = 0
KEN1 230542Z 15015KT 19/07 A298 RMK A01 T01920066  RH  044%=      5-min Rain = 0
KEN1 230543Z 15016KT 19/07 A298 RMK A01 T01910067  RH  044%=      5-min Rain = 0
KEN1 230544Z 15017KT 19/07 A298 RMK A01 T01910066  RH  044%=      5-min Rain = 0
KEN1 230545Z 15015KT 19/07 A298 RMK A01 T01910067  RH  044%=      5-min Rain = 0
KEN1 230546Z 15015KT 19/07 A298 RMK A01 T01910068  RH  045%=      5-min Rain = 0
KEN1 230547Z 15017G22KT 19/07 A298 RMK A01 T01910068  RH  045%=      5-min Rain = 0
KEN1 230548Z 15016KT 19/07 A298 RMK A01 T01910069  RH  045%=      5-min Rain = 0
KEN1 230549Z 15017KT 19/07 A298 RMK A01 T01910070  RH  045%=      5-min Rain = 0
KEN1 230550Z 15016KT 19/07 A298 RMK A01 T01910071  RH  046%=      5-min Rain = 0
KEN1 230551Z 15015KT 19/07 A298 RMK A01 T01910072  RH  046%=      5-min Rain = 0
KEN1 230552Z 15016KT 19/07 A298 RMK A01 T01910073  RH  046%=      5-min Rain = 0
KEN1 230553Z 15016KT 19/07 A298 RMK A01 T01900074  RH  047%=      5-min Rain = 0
KEN1 230554Z 15015KT 19/08 A298 RMK A01 T01910075  RH  047%=      5-min Rain = 0
KEN1 230555Z 15015KT 19/08 A298 RMK A01 T01900076  RH  047%=      5-min Rain = 0
KEN1 230556Z 15015KT 19/08 A298 RMK A01 T01900076  RH  048%=      5-min Rain = 0
KEN1 230557Z 15015KT 19/08 A298 RMK A01 T01900077  RH  048%=      5-min Rain = 0
KEN1 230558Z 15016KT 19/08 A298 RMK A01 T01890078  RH  048%=      5-min Rain = 0
KEN1 230559Z 15015KT 19/08 A298 RMK A01 T01900079  RH  049%=      5-min Rain = 0
KEN1 230600Z 15016KT 19/08 A298 RMK A01 T01900080  RH  049%=      5-min Rain = 0
KEN1 230601Z 15014KT 19/08 A2981 RMK A01 T01900081  RH  049%=      5-min Rain = 0
KEN1 230602Z 15015KT 19/08 A2981 RMK A01 T01900083  RH  050%=      5-min Rain = 0
KEN1 230603Z 15014G19KT 19/08 A2981 RMK A01 T01910084  RH  050%=      5-min Rain = 0
KEN1 230604Z 15016KT 19/09 A2981 RMK A01 T01910086  RH  050%=      5-min Rain = 0
KEN1 230605Z 15016KT 19/09 A2981 RMK A01 T01920088  RH  051%=      5-min Rain = 0
KEN1 230606Z 16016KT 19/09 A2981 RMK A01 T01930090  RH  051%=      5-min Rain = 0
KEN1 230607Z 16017KT 20/09 A2981 RMK A01 T01950092  RH  051%=      5-min Rain = 0
KEN1 230608Z 15017G22KT 20/09 A2981 RMK A01 T01960094  RH  051%=      5-min Rain = 0
KEN1 230609Z 16017KT 20/09 A2981 RMK A01 T01970094  RH  051%=      5-min Rain = 0
KEN1 230610Z 16015KT 20/10 A2981 RMK A01 T01980095  RH  051%=      5-min Rain = 0
KEN1 230611Z 16017KT 20/10 A2981 RMK A01 T01980096  RH  052%=      5-min Rain = 0
KEN1 230612Z 15020G26KT 20/10 A2981 RMK A01 T01990097  RH  052%=      5-min Rain = 0
KEN1 230613Z 15020KT 20/10 A2981 RMK A01 T02000098  RH  052%=      5-min Rain = 0
KEN1 230614Z 16020KT 20/10 A2981 RMK A01 T02010098  RH  052%=      5-min Rain = 0
KEN1 230615Z 15019KT 20/10 A2981 RMK A01 T02020099  RH  052%=      5-min Rain = 0
KEN1 230616Z 15020KT 20/10 A2981 RMK A01 T02010099  RH  052%=      5-min Rain = 0
KEN1 230617Z 16019KT 20/10 A2981 RMK A01 T02010100  RH  052%=      5-min Rain = 0
KEN1 230618Z 16019KT 20/10 A2981 RMK A01 T02020100  RH  052%=      5-min Rain = 0
KEN1 230619Z 15020G26KT 20/10 A2981 RMK A01 T02020101  RH  052%=      5-min Rain = 0
KEN1 230620Z 16019KT 20/10 A2981 RMK A01 T02020101  RH  052%=      5-min Rain = 0
KEN1 230621Z 16018KT 20/10 A2981 RMK A01 T02020102  RH  052%=      5-min Rain = 0
KEN1 230622Z 15018KT 20/10 A2981 RMK A01 T02020102  RH  053%=      5-min Rain = 0
KEN1 230623Z 15019KT 20/10 A2981 RMK A01 T02010103  RH  053%=      5-min Rain = 0
KEN1 230624Z 15017KT 20/10 A2981 RMK A01 T02010103  RH  053%=      5-min Rain = 0
KEN1 230625Z 15018KT 20/10 A2981 RMK A01 T02010103  RH  053%=      5-min Rain = 0
KEN1 230626Z 15017KT 20/10 A2981 RMK A01 T02000103  RH  054%=      5-min Rain = 0
KEN1 230627Z 16019KT 20/10 A2981 RMK A01 T02000104  RH  054%=      5-min Rain = 0
KEN1 230628Z 15018KT 20/10 A2981 RMK A01 T02000104  RH  054%=      5-min Rain = 0
KEN1 230629Z 15017KT 20/11 A2981 RMK A01 T02000105  RH  054%=      5-min Rain = 0
KEN1 230630Z 15017KT 20/11 A2981 RMK A01 T02000105  RH  054%=      5-min Rain = 0
KEN1 230631Z 15017KT 20/11 A2981 RMK A01 T01990105  RH  055%=      5-min Rain = 0
KEN1 230632Z 15018KT 20/11 A2981 RMK A01 T01990106  RH  055%=      5-min Rain = 0
KEN1 230633Z 15016KT 20/11 A2981 RMK A01 T01990106  RH  055%=      5-min Rain = 0
KEN1 230634Z 16018KT 20/11 A2981 RMK A01 T01980107  RH  056%=      5-min Rain = 0
KEN1 230635Z 15016KT 20/11 A2981 RMK A01 T01970108  RH  056%=      5-min Rain = 0
KEN1 230636Z 15018KT 20/11 A2981 RMK A01 T01980109  RH  056%=      5-min Rain = 0
KEN1 230637Z 15017KT 20/11 A2981 RMK A01 T01980109  RH  056%=      5-min Rain = 0
KEN1 230638Z 15016KT 20/11 A2982 RMK A01 T01990110  RH  057%=      5-min Rain = 0
KEN1 230639Z 15018G23KT 20/11 A2982 RMK A01 T01980110  RH  057%=      5-min Rain = 0
KEN1 230640Z 15019KT 20/11 A2982 RMK A01 T01990112  RH  057%=      5-min Rain = 0
KEN1 230641Z 15017KT 20/11 A2982 RMK A01 T02000112  RH  057%=      5-min Rain = 0
KEN1 230642Z 16016KT 20/11 A2982 RMK A01 T02000113  RH  057%=      5-min Rain = 0
KEN1 230643Z 16020KT 20/11 A2982 RMK A01 T01990113  RH  058%=      5-min Rain = 0
KEN1 230644Z 16018KT 20/11 A2982 RMK A01 T01990113  RH  058%=      5-min Rain = 0
KEN1 230645Z 15018KT 20/11 A2982 RMK A01 T01990113  RH  058%=      5-min Rain = 0
KEN1 230646Z 15018KT 20/11 A2982 RMK A01 T01990114  RH  058%=      5-min Rain = 0
KEN1 230647Z 16017KT 20/11 A2982 RMK A01 T01990114  RH  058%=      5-min Rain = 0
KEN1 230648Z 15017KT 20/12 A2982 RMK A01 T01990115  RH  058%=      5-min Rain = 0
KEN1 230649Z 15015KT 20/12 A2982 RMK A01 T01990116  RH  059%=      5-min Rain = 0
KEN1 230650Z 15017KT 20/12 A2982 RMK A01 T01980116  RH  059%=      5-min Rain = 0
KEN1 230651Z 15017KT 20/12 A2982 RMK A01 T01980116  RH  059%=      5-min Rain = 0
KEN1 230652Z 15017KT 20/12 A2982 RMK A01 T01980117  RH  060%=      5-min Rain = 0
KEN1 230653Z 16018KT 20/12 A2982 RMK A01 T01980118  RH  060%=      5-min Rain = 0
KEN1 230654Z 16017KT 20/12 A2982 RMK A01 T01980118  RH  060%=      5-min Rain = 0
KEN1 230655Z 16017KT 20/12 A2982 RMK A01 T01980119  RH  060%=      5-min Rain = 0
KEN1 230656Z 15017KT 20/12 A2982 RMK A01 T01980120  RH  060%=      5-min Rain = 0
KEN1 230657Z 16018KT 20/12 A2982 RMK A01 T01990121  RH  061%=      5-min Rain = 0
KEN1 230658Z 16017KT 20/12 A2982 RMK A01 T01990122  RH  061%=      5-min Rain = 0
KEN1 230659Z 15017KT 20/12 A2982 RMK A01 T01990122  RH  061%=      5-min Rain = 0
KEN1 230700Z 15018KT 20/12 A2982 RMK A01 T01990122  RH  061%=      5-min Rain = 0
KEN1 230701Z 15017KT 20/12 A2982 RMK A01 T01990123  RH  061%=      5-min Rain = 0
KEN1 230702Z 15018KT 20/12 A2982 RMK A01 T01990124  RH  062%=      5-min Rain = 0
KEN1 230703Z 16018KT 20/13 A2982 RMK A01 T02000125  RH  062%=      5-min Rain = 0
KEN1 230704Z 15017KT 20/13 A2982 RMK A01 T02000126  RH  062%=      5-min Rain = 0
KEN1 230705Z 15017KT 20/13 A2982 RMK A01 T02000126  RH  063%=      5-min Rain = 0
KEN1 230706Z 15017KT 20/13 A2982 RMK A01 T01990126  RH  063%=      5-min Rain = 0
KEN1 230707Z 15019KT 20/13 A2982 RMK A01 T01990127  RH  063%=      5-min Rain = 0
KEN1 230708Z 16018KT 20/13 A2982 RMK A01 T02000128  RH  063%=      5-min Rain = 0
KEN1 230709Z 15017KT 20/13 A2982 RMK A01 T02000129  RH  064%=      5-min Rain = 0
KEN1 230710Z 15017G22KT 20/13 A2982 RMK A01 T02000129  RH  064%=      5-min Rain = 0
KEN1 230711Z 16019KT 20/13 A2982 RMK A01 T02000131  RH  064%=      5-min Rain = 0
KEN1 230712Z 15019KT 20/13 A2982 RMK A01 T02010132  RH  064%=      5-min Rain = 0
KEN1 230713Z 15019KT 20/13 A2982 RMK A01 T02010132  RH  064%=      5-min Rain = 0
KEN1 230714Z 16016KT 20/13 A2982 RMK A01 T02020133  RH  065%=      5-min Rain = 0
KEN1 230715Z 15019KT 20/13 A2982 RMK A01 T02010133  RH  065%=      5-min Rain = 0
KEN1 230716Z 16017KT 20/13 A2982 RMK A01 T02010134  RH  065%=      5-min Rain = 0
KEN1 230717Z 15017KT 20/14 A2982 RMK A01 T02020135  RH  065%=      5-min Rain = 0
KEN1 230718Z 15017KT 20/14 A2982 RMK A01 T02020135  RH  066%=      5-min Rain = 0
KEN1 230719Z 16018KT 20/14 A2982 RMK A01 T02010136  RH  066%=      5-min Rain = 0
KEN1 230720Z 15020KT 20/14 A2982 RMK A01 T02010137  RH  066%=      5-min Rain = 0
KEN1 230721Z 16019KT 20/14 A2982 RMK A01 T02010138  RH  067%=      5-min Rain = 0
KEN1 230722Z 15017KT 20/14 A2982 RMK A01 T02030139  RH  067%=      5-min Rain = 0
KEN1 230723Z 15017G23KT 20/14 A2982 RMK A01 T02030139  RH  067%=      5-min Rain = 0
KEN1 230724Z 16019G24KT 20/14 A2982 RMK A01 T02030140  RH  067%=      5-min Rain = 0
KEN1 230725Z 16018KT 20/14 A2982 RMK A01 T02030141  RH  068%=      5-min Rain = 0
KEN1 230726Z 15017KT 20/14 A2982 RMK A01 T02040141  RH  067%=      5-min Rain = 0
KEN1 230727Z 16017G23KT 20/14 A2982 RMK A01 T02030141  RH  067%=      5-min Rain = 0
KEN1 230728Z 15018KT 20/14 A2982 RMK A01 T02030142  RH  068%=      5-min Rain = 0
KEN1 230729Z 15021KT 20/14 A2982 RMK A01 T02030143  RH  068%=      5-min Rain = 0
KEN1 230730Z 15018KT 20/14 A2982 RMK A01 T02040144  RH  068%=      5-min Rain = 0
KEN1 230731Z 15018KT 21/14 A2982 RMK A01 T02050144  RH  068%=      5-min Rain = 0
KEN1 230732Z 15018KT 21/14 A2982 RMK A01 T02050144  RH  068%=      5-min Rain = 0
KEN1 230733Z 15019KT 21/15 A2982 RMK A01 T02050145  RH  069%=      5-min Rain = 0
KEN1 230734Z 16017KT 21/15 A2982 RMK A01 T02050146  RH  069%=      5-min Rain = 0
KEN1 230735Z 16019KT 21/15 A2982 RMK A01 T02050147  RH  069%=      5-min Rain = 0
KEN1 230736Z 16019KT 21/15 A2982 RMK A01 T02050147  RH  069%=      5-min Rain = 0
KEN1 230737Z 16017KT 21/15 A2982 RMK A01 T02050147  RH  070%=      5-min Rain = 0
KEN1 230738Z 16019KT 21/15 A2982 RMK A01 T02050148  RH  070%=      5-min Rain = 0
KEN1 230739Z 15020KT 21/15 A2982 RMK A01 T02050148  RH  070%=      5-min Rain = 0
KEN1 230740Z 16022KT 21/15 A2982 RMK A01 T02050149  RH  070%=      5-min Rain = 0
KEN1 230741Z 16021KT 21/15 A2982 RMK A01 T02060150  RH  070%=      5-min Rain = 0
KEN1 230742Z 16020KT 21/15 A2982 RMK A01 T02060150  RH  070%=      5-min Rain = 0
KEN1 230743Z 16020KT 21/15 A2982 RMK A01 T02070150  RH  070%=      5-min Rain = 0
KEN1 230744Z 16019KT 21/15 A2982 RMK A01 T02070150  RH  070%=      5-min Rain = 0
KEN1 230745Z 16019KT 21/15 A2982 RMK A01 T02070151  RH  070%=      5-min Rain = 0
KEN1 230746Z 16018KT 21/15 A2982 RMK A01 T02060151  RH  071%=      5-min Rain = 0
KEN1 230747Z 16018KT 21/15 A2982 RMK A01 T02060152  RH  071%=      5-min Rain = 0
KEN1 230748Z 15016KT 21/15 A2982 RMK A01 T02050151  RH  071%=      5-min Rain = 0
KEN1 230749Z 15018KT 20/15 A2982 RMK A01 T02040152  RH  072%=      5-min Rain = 0
KEN1 230750Z 15017KT 20/15 A2982 RMK A01 T02040152  RH  072%=      5-min Rain = 0
KEN1 230751Z 15019KT 20/15 A2982 RMK A01 T02040153  RH  072%=      5-min Rain = 0
KEN1 230752Z 16020KT 20/15 A2982 RMK A01 T02040153  RH  072%=      5-min Rain = 0
KEN1 230753Z 16019KT 20/15 A2982 RMK A01 T02040153  RH  072%=      5-min Rain = 0
KEN1 230754Z 16019KT 21/15 A2982 RMK A01 T02050154  RH  072%=      5-min Rain = 0
KEN1 230755Z 15018KT 21/15 A2982 RMK A01 T02050154  RH  073%=      5-min Rain = 0
KEN1 230756Z 15019KT 21/15 A2982 RMK A01 T02050154  RH  073%=      5-min Rain = 0
KEN1 230757Z 15017KT 21/16 A2982 RMK A01 T02050155  RH  073%=      5-min Rain = 0
KEN1 230758Z 15018KT 20/16 A2982 RMK A01 T02040155  RH  073%=      5-min Rain = 0
KEN1 230759Z 15018KT 20/16 A2982 RMK A01 T02040156  RH  073%=      5-min Rain = 0
KEN1 230800Z 15015KT 20/16 A2982 RMK A01 T02040156  RH  074%=      5-min Rain = 0
KEN1 230801Z 16018G23KT 20/16 A2982 RMK A01 T02040156  RH  074%=      5-min Rain = 0
KEN1 230802Z 16017KT 20/16 A2982 RMK A01 T02030156  RH  074%=      5-min Rain = 0
KEN1 230803Z 15017KT 20/16 A2982 RMK A01 T02030156  RH  074%=      5-min Rain = 0
KEN1 230804Z 15018KT 20/16 A2982 RMK A01 T02030156  RH  075%=      5-min Rain = 0
KEN1 230805Z 15016KT 20/16 A2982 RMK A01 T02020157  RH  075%=      5-min Rain = 0
KEN1 230806Z 15015KT 20/16 A2982 RMK A01 T02020157  RH  075%=      5-min Rain = 0
KEN1 230807Z 15016KT 20/16 A2982 RMK A01 T02020157  RH  075%=      5-min Rain = 0
KEN1 230808Z 15016KT 20/16 A2982 RMK A01 T02010157  RH  076%=      5-min Rain = 0
KEN1 230809Z 15017KT 20/16 A2982 RMK A01 T02010158  RH  076%=      5-min Rain = 0
KEN1 230810Z 15016KT 20/16 A2982 RMK A01 T02010158  RH  076%=      5-min Rain = 0
KEN1 230811Z 15017KT 20/16 A2982 RMK A01 T02010158  RH  077%=      5-min Rain = 0
KEN1 230812Z 15016KT 20/16 A2982 RMK A01 T02000159  RH  077%=      5-min Rain = 0
KEN1 230813Z 15016KT 20/16 A2982 RMK A01 T02010159  RH  077%=      5-min Rain = 0
KEN1 230814Z 15017KT 20/16 A2982 RMK A01 T02000159  RH  077%=      5-min Rain = 0
KEN1 230815Z 15016G21KT 20/16 A2982 RMK A01 T02000159  RH  077%=      5-min Rain = 0
KEN1 230816Z 15016KT 20/16 A2982 RMK A01 T02000159  RH  077%=      5-min Rain = 0
KEN1 230817Z 15015KT 20/16 A2982 RMK A01 T02000160  RH  077%=      5-min Rain = 0
KEN1 230818Z 15015KT 20/16 A2982 RMK A01 T02000160  RH  078%=      5-min Rain = 0
KEN1 230819Z 15017KT 20/16 A2982 RMK A01 T02000161  RH  078%=      5-min Rain = 0
KEN1 230820Z 15017KT 20/16 A2982 RMK A01 T02000161  RH  078%=      5-min Rain = 0
KEN1 230821Z 15016KT 20/16 A2983 RMK A01 T02000161  RH  078%=      5-min Rain = 0
KEN1 230822Z 15016KT 20/16 A2983 RMK A01 T02000161  RH  078%=      5-min Rain = 0
KEN1 230823Z 15016KT 20/16 A2983 RMK A01 T02000161  RH  078%=      5-min Rain = 0
KEN1 230824Z 15016KT 20/16 A2983 RMK A01 T02000162  RH  079%=      5-min Rain = 0
KEN1 230825Z 15016KT 20/16 A2983 RMK A01 T01990162  RH  079%=      5-min Rain = 0
KEN1 230826Z 16015KT 20/16 A2983 RMK A01 T01990162  RH  079%=      5-min Rain = 0
KEN1 230827Z 15017KT 20/16 A2983 RMK A01 T01990162  RH  079%=      5-min Rain = 0
KEN1 230828Z 15016KT 20/16 A2983 RMK A01 T01990162  RH  079%=      5-min Rain = 0
KEN1 230829Z 15017KT 20/16 A2983 RMK A01 T01990163  RH  079%=      5-min Rain = 0
KEN1 230830Z 15016KT 20/16 A2983 RMK A01 T01990163  RH  079%=      5-min Rain = 0
KEN1 230831Z 15017KT 20/16 A2983 RMK A01 T01990163  RH  080%=      5-min Rain = 0
KEN1 230832Z 15016KT 20/16 A2983 RMK A01 T01990163  RH  080%=      5-min Rain = 0
KEN1 230833Z 15015KT 20/16 A2983 RMK A01 T01990163  RH  080%=      5-min Rain = 0
KEN1 230834Z 15015KT 20/16 A2983 RMK A01 T01990163  RH  080%=      5-min Rain = 0
KEN1 230835Z 15013KT 20/16 A2983 RMK A01 T01990163  RH  080%=      5-min Rain = 0
KEN1 230836Z 15015KT 20/16 A2983 RMK A01 T01980163  RH  080%=      5-min Rain = 0
KEN1 230837Z 15014KT 20/16 A2983 RMK A01 T01980164  RH  081%=      5-min Rain = 0
KEN1 230838Z 15011KT 20/16 A2983 RMK A01 T01970163  RH  081%=      5-min Rain = 0
KEN1 230839Z 15015KT 20/16 A2983 RMK A01 T01960163  RH  081%=      5-min Rain = 0
KEN1 230840Z 15014KT 20/16 A2983 RMK A01 T01960164  RH  082%=      5-min Rain = 0
KEN1 230841Z 15013KT 20/16 A2983 RMK A01 T01960163  RH  081%=      5-min Rain = 0
KEN1 230842Z 15014KT 20/16 A2983 RMK A01 T01960163  RH  081%=      5-min Rain = 0
KEN1 230843Z 15014KT 20/16 A2983 RMK A01 T01950163  RH  082%=      5-min Rain = 0
KEN1 230844Z 15014KT 20/16 A2983 RMK A01 T01950164  RH  082%=      5-min Rain = 0
KEN1 230845Z 15013KT 20/16 A2983 RMK A01 T01950164  RH  082%=      5-min Rain = 0
KEN1 230846Z 15015KT 20/16 A2983 RMK A01 T01950164  RH  082%=      5-min Rain = 0
KEN1 230847Z 15016KT 20/17 A2983 RMK A01 T01950165  RH  082%=      5-min Rain = 0
KEN1 230848Z 15014KT 20/17 A2983 RMK A01 T01960165  RH  083%=      5-min Rain = 0
KEN1 230849Z 16016KT 20/17 A2983 RMK A01 T01960166  RH  083%=      5-min Rain = 0
KEN1 230850Z 16017KT 20/17 A2983 RMK A01 T01970167  RH  083%=      5-min Rain = 0
KEN1 230851Z 16017KT 20/17 A2984 RMK A01 T01980167  RH  082%=      5-min Rain = 0
KEN1 230852Z 15017KT 20/17 A2984 RMK A01 T01980167  RH  082%=      5-min Rain = 0
KEN1 230853Z 16017KT 20/17 A2984 RMK A01 T01990168  RH  082%=      5-min Rain = 0
KEN1 230854Z 15016KT 20/17 A2984 RMK A01 T01990168  RH  082%=      5-min Rain = 0
KEN1 230855Z 15016KT 20/17 A2984 RMK A01 T01990168  RH  082%=      5-min Rain = 0
KEN1 230856Z 16015KT 20/17 A2984 RMK A01 T01990168  RH  083%=      5-min Rain = 0
KEN1 230857Z 16016KT 20/17 A2984 RMK A01 T01980168  RH  083%=      5-min Rain = 0
KEN1 230858Z 15016KT 20/17 A2984 RMK A01 T01980168  RH  083%=      5-min Rain = 0
KEN1 230859Z 15016KT 20/17 A2984 RMK A01 T01980168  RH  083%=      5-min Rain = 0
KEN1 230900Z 15015KT 20/17 A2984 RMK A01 T01980169  RH  083%=      5-min Rain = 0
KEN1 230901Z 15014KT 20/17 A2984 RMK A01 T01980169  RH  083%=      5-min Rain = 0
KEN1 230902Z 15016KT 20/17 A2984 RMK A01 T01980169  RH  083%=      5-min Rain = 0
KEN1 230903Z 15014G19KT 20/17 A2984 RMK A01 T01980170  RH  084%=      5-min Rain = 0
KEN1 230904Z 15016KT 20/17 A2984 RMK A01 T01980170  RH  084%=      5-min Rain = 0
KEN1 230905Z 16015KT 20/17 A2984 RMK A01 T01980170  RH  084%=      5-min Rain = 0
KEN1 230906Z 16014KT 20/17 A2984 RMK A01 T01980170  RH  084%=      5-min Rain = 0
KEN1 230907Z 15014KT 20/17 A2984 RMK A01 T01990171  RH  084%=      5-min Rain = 0
KEN1 230908Z 15014KT 20/17 A2984 RMK A01 T01980170  RH  084%=      5-min Rain = 0
KEN1 230909Z 15014KT 20/17 A2984 RMK A01 T01980171  RH  084%=      5-min Rain = 0
KEN1 230910Z 16015KT 20/17 A2984 RMK A01 T01980171  RH  084%=      5-min Rain = 0
KEN1 230911Z 15014KT 20/17 A2984 RMK A01 T01990172  RH  084%=      5-min Rain = 0
KEN1 230912Z 16016KT 20/17 A2984 RMK A01 T01990172  RH  084%=      5-min Rain = 0
KEN1 230913Z 16016KT 20/17 A2984 RMK A01 T02000172  RH  084%=      5-min Rain = 0
KEN1 230914Z 16013KT 20/17 A2984 RMK A01 T02000173  RH  084%=      5-min Rain = 0
KEN1 230915Z 15014KT 20/17 A2984 RMK A01 T02000173  RH  084%=      5-min Rain = 0
KEN1 230916Z 16014KT 20/17 A2984 RMK A01 T02000173  RH  084%=      5-min Rain = 0
KEN1 230917Z 16015KT 20/17 A2984 RMK A01 T02000173  RH  084%=      5-min Rain = 0
KEN1 230918Z 15014KT 20/17 A2984 RMK A01 T01990173  RH  084%=      5-min Rain = 0
KEN1 230919Z 15016KT 20/17 A2983 RMK A01 T02000173  RH  084%=      5-min Rain = 0
KEN1 230920Z 15014KT 20/17 A2984 RMK A01 T02000173  RH  084%=      5-min Rain = 0
KEN1 230921Z 15016KT 20/17 A2984 RMK A01 T02000173  RH  084%=      5-min Rain = 0
KEN1 230922Z 15015KT 20/17 A2984 RMK A01 T02010174  RH  085%=      5-min Rain = 0
KEN1 230923Z 15015KT 20/17 A2984 RMK A01 T02010174  RH  085%=      5-min Rain = 0
KEN1 230924Z 15015KT 20/17 A2984 RMK A01 T02000174  RH  085%=      5-min Rain = 0
KEN1 230925Z 15017KT 20/17 A2984 RMK A01 T02000174  RH  085%=      5-min Rain = 0
KEN1 230926Z 15016KT 20/18 A2984 RMK A01 T02010175  RH  085%=      5-min Rain = 0
KEN1 230927Z 15015KT 20/18 A2984 RMK A01 T02010175  RH  085%=      5-min Rain = 0
KEN1 230928Z 15015KT 20/18 A2984 RMK A01 T02010175  RH  085%=      5-min Rain = 0
KEN1 230929Z 15017KT 20/18 A2984 RMK A01 T02010175  RH  085%=      5-min Rain = 0
KEN1 230930Z 15016KT 20/18 A2984 RMK A01 T02010175  RH  085%=      5-min Rain = 0
KEN1 230931Z 15014KT 20/18 A2984 RMK A01 T02020176  RH  085%=      5-min Rain = 0
KEN1 230932Z 15014KT 20/18 A2984 RMK A01 T02020176  RH  085%=      5-min Rain = 0
KEN1 230933Z 16014KT 20/18 A2984 RMK A01 T02010176  RH  085%=      5-min Rain = 0
KEN1 230934Z 15014KT 20/18 A2984 RMK A01 T02010176  RH  085%=      5-min Rain = 0
KEN1 230935Z 16013KT 20/18 A2984 RMK A01 T02010176  RH  085%=      5-min Rain = 0
KEN1 230936Z 15013KT 20/18 A2984 RMK A01 T02010176  RH  085%=      5-min Rain = 0
KEN1 230937Z 16014KT 20/18 A2985 RMK A01 T02010176  RH  086%=      5-min Rain = 0
KEN1 230938Z 16013KT 20/18 A2985 RMK A01 T02010176  RH  086%=      5-min Rain = 0
KEN1 230939Z 16013KT 20/18 A2985 RMK A01 T02010176  RH  086%=      5-min Rain = 0
KEN1 230940Z 16013KT 20/18 A2985 RMK A01 T02010176  RH  086%=      5-min Rain = 0
KEN1 230941Z 16012KT 20/18 A2985 RMK A01 T02010176  RH  086%=      5-min Rain = 0
KEN1 230942Z 16011KT 20/18 A2985 RMK A01 T02010177  RH  086%=      5-min Rain = 0
KEN1 230943Z 16013KT 20/18 A2985 RMK A01 T02000177  RH  086%=      5-min Rain = 0
KEN1 230944Z 16011KT 20/18 A2985 RMK A01 T02010177  RH  086%=      5-min Rain = 0
KEN1 230945Z 16011KT 20/18 A2985 RMK A01 T02000177  RH  086%=      5-min Rain = 0
KEN1 230946Z 16013KT 20/18 A2985 RMK A01 T02000177  RH  086%=      5-min Rain = 0
KEN1 230947Z 16013KT 20/18 A2985 RMK A01 T02010178  RH  086%=      5-min Rain = 0
KEN1 230948Z 15012KT 20/18 A2985 RMK A01 T02010178  RH  086%=      5-min Rain = 0
KEN1 230949Z 16012KT 20/18 A2985 RMK A01 T02010178  RH  086%=      5-min Rain = 0
KEN1 230950Z 15012KT 20/18 A2985 RMK A01 T02010178  RH  087%=      5-min Rain = 0
KEN1 230951Z 15011KT 20/18 A2985 RMK A01 T02010178  RH  087%=      5-min Rain = 0
KEN1 230952Z 16010KT 20/18 A2985 RMK A01 T02010178  RH  087%=      5-min Rain = 0
KEN1 230953Z 16010KT 20/18 A2985 RMK A01 T02000178  RH  087%=      5-min Rain = 0
KEN1 230954Z 16011KT 20/18 A2985 RMK A01 T02000178  RH  087%=      5-min Rain = 0
KEN1 230955Z 16012KT 20/18 A2985 RMK A01 T02000178  RH  087%=      5-min Rain = 0
KEN1 230956Z 16010KT 20/18 A2986 RMK A01 T02010178  RH  087%=      5-min Rain = 0
KEN1 230957Z 16009KT 20/18 A2986 RMK A01 T02010178  RH  087%=      5-min Rain = 0
KEN1 230958Z 16009KT 20/18 A2986 RMK A01 T02010178  RH  087%=      5-min Rain = 0
KEN1 230959Z 16010KT 20/18 A2986 RMK A01 T02010179  RH  087%=      5-min Rain = 0
KEN1 231000Z 16009KT 20/18 A2986 RMK A01 T02010179  RH  087%=      5-min Rain = 0
KEN1 231001Z 16008KT 20/18 A2986 RMK A01 T02010179  RH  087%=      5-min Rain = 0
KEN1 231002Z 17008KT 20/18 A2986 RMK A01 T02010178  RH  087%=      5-min Rain = 0
KEN1 231003Z 16009KT 20/18 A2986 RMK A01 T02010179  RH  087%=      5-min Rain = 0
KEN1 231004Z 16007KT 20/18 A2986 RMK A01 T02010179  RH  087%=      5-min Rain = 0
KEN1 231005Z 17006KT 20/18 A2986 RMK A01 T02010179  RH  087%=      5-min Rain = 0
KEN1 231006Z 17007KT 20/18 A2987 RMK A01 T02000178  RH  087%=      5-min Rain = 0
KEN1 231007Z 17005KT 20/18 A2987 RMK A01 T02000179  RH  087%=      5-min Rain = 0
KEN1 231008Z 17004KT 20/18 A2987 RMK A01 T02000179  RH  087%=      5-min Rain = 0
KEN1 231009Z 16006KT 20/18 A2987 RMK A01 T02000179  RH  088%=      5-min Rain = 0
KEN1 231010Z 16005KT 20/18 A2987 RMK A01 T02000179  RH  088%=      5-min Rain = 0
KEN1 231011Z 17004KT 20/18 A2987 RMK A01 T02000179  RH  088%=      5-min Rain = 0
KEN1 231012Z 15004KT 20/18 A2987 RMK A01 T01990179  RH  088%=      5-min Rain = 0
KEN1 231013Z 15003KT 20/18 A2987 RMK A01 T01990179  RH  088%=      5-min Rain = 0
KEN1 231014Z 13002KT 20/18 A2987 RMK A01 T01990179  RH  088%=      5-min Rain = 0
KEN1 231015Z 09001KT 20/18 A2987 RMK A01 T01990179  RH  088%=      5-min Rain = 0
KEN1 231016Z 06001KT 20/18 A2987 RMK A01 T01990178  RH  088%=      5-min Rain = 0
KEN1 231017Z 06001KT 20/18 A2987 RMK A01 T01980178  RH  088%=      5-min Rain = 0
KEN1 231018Z 08001KT 20/18 A2987 RMK A01 T01980177  RH  088%=      5-min Rain = 0
KEN1 231019Z 08002KT 20/18 A2987 RMK A01 T01970177  RH  088%=      5-min Rain = 0
KEN1 231020Z 07001KT 20/18 A2987 RMK A01 T01960177  RH  088%=      5-min Rain = 0
KEN1 231021Z 08002KT 20/18 A2987 RMK A01 T01960176  RH  088%=      5-min Rain = 0
KEN1 231022Z 08002KT 20/18 A2987 RMK A01 T01960177  RH  089%=      5-min Rain = 0
KEN1 231023Z 09002KT 20/18 A2987 RMK A01 T01950176  RH  089%=      5-min Rain = 0
KEN1 231024Z 09002KT 20/18 A2987 RMK A01 T01950176  RH  089%=      5-min Rain = 0
KEN1 231025Z 09003KT 19/18 A2987 RMK A01 T01940176  RH  089%=      5-min Rain = 0
KEN1 231026Z 10003KT 19/18 A2987 RMK A01 T01940176  RH  089%=      5-min Rain = 0
KEN1 231027Z 06004KT 19/18 A2987 RMK A01 T01940176  RH  089%=      5-min Rain = 0
KEN1 231028Z 06004KT 19/17 A2987 RMK A01 T01930174  RH  089%=      5-min Rain = 0
KEN1 231029Z 04005KT 19/17 A2987 RMK A01 T01910171  RH  088%=      5-min Rain = 0
KEN1 231030Z 05005KT 19/16 A2987 RMK A01 T01870162  RH  085%=      5-min Rain = 0
KEN1 231031Z 05006KT 18/16 A2987 RMK A01 T01840158  RH  085%=      5-min Rain = 0
KEN1 231032Z 05006KT 18/15 A2987 RMK A01 T01810153  RH  084%=      5-min Rain = 0
KEN1 231033Z 05005KT 18/15 A2987 RMK A01 T01780150  RH  084%=      5-min Rain = 0
KEN1 231034Z 06005KT 18/15 A2987 RMK A01 T01760151  RH  085%=      5-min Rain = 0
KEN1 231035Z 06006KT 18/15 A2987 RMK A01 T01750151  RH  086%=      5-min Rain = 0
KEN1 231036Z 05006KT 17/15 A2987 RMK A01 T01740152  RH  087%=      5-min Rain = 0
KEN1 231037Z 06006KT 17/15 A2987 RMK A01 T01730152  RH  087%=      5-min Rain = 0
KEN1 231038Z 06006KT 17/15 A2987 RMK A01 T01730153  RH  088%=      5-min Rain = 0
KEN1 231039Z 06005KT 17/15 A2987 RMK A01 T01730153  RH  088%=      5-min Rain = 0
KEN1 231040Z 06005KT 17/15 A2987 RMK A01 T01730154  RH  089%=      5-min Rain = 0
KEN1 231041Z 06005KT 17/16 A2987 RMK A01 T01730156  RH  089%=      5-min Rain = 0
KEN1 231042Z 06005KT 18/16 A2987 RMK A01 T01750158  RH  090%=      5-min Rain = 0
KEN1 231043Z 04006KT 18/16 A2987 RMK A01 T01750157  RH  089%=      5-min Rain = 0
KEN1 231044Z 04006KT 18/16 A2987 RMK A01 T01750156  RH  088%=      5-min Rain = 0
KEN1 231045Z 03005KT 18/16 A2987 RMK A01 T01750156  RH  088%=      5-min Rain = 0
KEN1 231046Z 02006KT 18/16 A2987 RMK A01 T01760157  RH  089%=      5-min Rain = 0
KEN1 231047Z 01006KT 18/16 A2987 RMK A01 T01760157  RH  088%=      5-min Rain = 0
KEN1 231048Z 01007KT 18/16 A2987 RMK A01 T01760156  RH  088%=      5-min Rain = 0
KEN1 231049Z 00007KT 18/16 A2987 RMK A01 T01760157  RH  088%=      5-min Rain = 0
KEN1 231050Z 35008KT 18/16 A2987 RMK A01 T01770158  RH  089%=      5-min Rain = 0
KEN1 231051Z 00010KT 18/15 A2987 RMK A01 T01770152  RH  086%=      5-min Rain = 0
KEN1 231052Z 01011KT 18/14 A2987 RMK A01 T01750144  RH  082%=      5-min Rain = 0
KEN1 231053Z 01011KT 17/14 A2987 RMK A01 T01710141  RH  082%=      5-min Rain = 0
KEN1 231054Z 01012KT 17/14 A2987 RMK A01 T01690139  RH  083%=      5-min Rain = 0
KEN1 231055Z 01011KT 17/14 A2987 RMK A01 T01670139  RH  083%=      5-min Rain = 0
KEN1 231056Z 00010KT 17/14 A2987 RMK A01 T01660139  RH  084%=      5-min Rain = 0
KEN1 231057Z 00011KT 17/14 A2987 RMK A01 T01660138  RH  084%=      5-min Rain = 0
KEN1 231058Z 01012KT 16/14 A2987 RMK A01 T01640137  RH  084%=      5-min Rain = 0
KEN1 231059Z 01013KT 16/14 A2987 RMK A01 T01640136  RH  083%=      5-min Rain = 0
KEN1 231100Z 01012KT 16/14 A2987 RMK A01 T01630136  RH  084%=      5-min Rain = 0
KEN1 231101Z 01011KT 16/14 A2987 RMK A01 T01630136  RH  084%=      5-min Rain = 0
KEN1 231102Z 01011KT 16/14 A2988 RMK A01 T01630135  RH  084%=      5-min Rain = 0
KEN1 231103Z 01010KT 16/14 A2987 RMK A01 T01620135  RH  084%=      5-min Rain = 0
KEN1 231104Z 02008KT 16/14 A2988 RMK A01 T01620135  RH  084%=      5-min Rain = 0
KEN1 231105Z 02008KT 16/13 A2988 RMK A01 T01610133  RH  084%=      5-min Rain = 0
KEN1 231106Z 02009KT 16/13 A2988 RMK A01 T01600131  RH  083%=      5-min Rain = 0
KEN1 231107Z 02010KT 16/13 A2988 RMK A01 T01590130  RH  083%=      5-min Rain = 0
KEN1 231108Z 03011KT 16/13 A2988 RMK A01 T01580130  RH  083%=      5-min Rain = 0
KEN1 231109Z 03010KT 16/13 A2988 RMK A01 T01580129  RH  083%=      5-min Rain = 0
KEN1 231110Z 02009KT 16/13 A2988 RMK A01 T01570130  RH  084%=      5-min Rain = 0
KEN1 231111Z 02010KT 16/13 A2988 RMK A01 T01570129  RH  083%=      5-min Rain = 0
KEN1 231112Z 02009KT 16/13 A2988 RMK A01 T01560128  RH  083%=      5-min Rain = 0
KEN1 231113Z 03009KT 16/13 A2988 RMK A01 T01550127  RH  084%=      5-min Rain = 0
KEN1 231114Z 02009KT 16/13 A2988 RMK A01 T01550127  RH  084%=      5-min Rain = 0
KEN1 231115Z 02009KT 15/13 A2988 RMK A01 T01540127  RH  084%=      5-min Rain = 0
KEN1 231116Z 02009KT 15/13 A2988 RMK A01 T01540126  RH  084%=      5-min Rain = 0
KEN1 231117Z 02007KT 15/13 A2988 RMK A01 T01540127  RH  084%=      5-min Rain = 0
KEN1 231118Z 01006KT 15/13 A2988 RMK A01 T01530126  RH  084%=      5-min Rain = 0
KEN1 231119Z 00008KT 15/13 A2988 RMK A01 T01530126  RH  084%=      5-min Rain = 0
KEN1 231120Z 00009KT 15/13 A2988 RMK A01 T01530125  RH  083%=      5-min Rain = 0
KEN1 231121Z 00009KT 15/12 A2988 RMK A01 T01520123  RH  083%=      5-min Rain = 0
KEN1 231122Z 01006KT 15/12 A2988 RMK A01 T01520123  RH  083%=      5-min Rain = 0
KEN1 231123Z 02008KT 15/12 A2988 RMK A01 T01510123  RH  084%=      5-min Rain = 0
KEN1 231124Z 01008KT 15/12 A2988 RMK A01 T01500123  RH  084%=      5-min Rain = 0
KEN1 231125Z 02008KT 15/12 A2988 RMK A01 T01500124  RH  084%=      5-min Rain = 0
KEN1 231126Z 02011KT 15/12 A2988 RMK A01 T01500124  RH  084%=      5-min Rain = 0
KEN1 231127Z 02014KT 15/12 A2988 RMK A01 T01500123  RH  084%=      5-min Rain = 0
KEN1 231128Z 02015KT 15/12 A2988 RMK A01 T01490121  RH  084%=      5-min Rain = 0
KEN1 231129Z 02016KT 15/12 A2988 RMK A01 T01480120  RH  084%=      5-min Rain = 0
KEN1 231130Z 02013KT 15/12 A2988 RMK A01 T01470121  RH  084%=      5-min Rain = 0
KEN1 231131Z 02012KT 15/12 A2988 RMK A01 T01470120  RH  084%=      5-min Rain = 0
KEN1 231132Z 02013KT 15/12 A2988 RMK A01 T01460120  RH  084%=      5-min Rain = 0
KEN1 231133Z 01015KT 15/12 A2988 RMK A01 T01460120  RH  085%=      5-min Rain = 0
KEN1 231134Z 02015KT 15/12 A2988 RMK A01 T01460120  RH  085%=      5-min Rain = 0
KEN1 231135Z 02015KT 15/12 A2988 RMK A01 T01450120  RH  085%=      5-min Rain = 0
KEN1 231136Z 02014KT 15/12 A2988 RMK A01 T01450120  RH  085%=      5-min Rain = 0
KEN1 231137Z 02015KT 15/12 A2988 RMK A01 T01450119  RH  085%=      5-min Rain = 0
KEN1 231138Z 03015KT 15/12 A2988 RMK A01 T01450119  RH  085%=      5-min Rain = 0
KEN1 231139Z 03013KT 14/12 A2988 RMK A01 T01440119  RH  085%=      5-min Rain = 0
KEN1 231140Z 02013KT 14/12 A2987 RMK A01 T01440119  RH  085%=      5-min Rain = 0
KEN1 231141Z 02012KT 14/12 A2987 RMK A01 T01440120  RH  085%=      5-min Rain = 0
KEN1 231142Z 02013KT 14/12 A2987 RMK A01 T01440120  RH  085%=      5-min Rain = 0
KEN1 231143Z 02013KT 14/12 A2987 RMK A01 T01440120  RH  085%=      5-min Rain = 0
KEN1 231144Z 01014KT 14/12 A2988 RMK A01 T01440120  RH  085%=      5-min Rain = 0
KEN1 231145Z 01015KT 14/12 A2988 RMK A01 T01440119  RH  085%=      5-min Rain = 0
KEN1 231146Z 01015KT 14/12 A2988 RMK A01 T01440120  RH  085%=      5-min Rain = 0
KEN1 231147Z 01017KT 14/12 A2988 RMK A01 T01440119  RH  085%=      5-min Rain = 0
KEN1 231148Z 01016KT 14/12 A2988 RMK A01 T01430119  RH  085%=      5-min Rain = 0
KEN1 231149Z 01015KT 14/12 A2988 RMK A01 T01430119  RH  085%=      5-min Rain = 0
KEN1 231150Z 02013KT 14/12 A2988 RMK A01 T01430119  RH  086%=      5-min Rain = 0
KEN1 231151Z 02014KT 14/12 A2988 RMK A01 T01430119  RH  086%=      5-min Rain = 0
KEN1 231152Z 02013KT 14/12 A2988 RMK A01 T01420119  RH  086%=      5-min Rain = 0
KEN1 231153Z 02013KT 14/12 A2988 RMK A01 T01420119  RH  086%=      5-min Rain = 0
KEN1 231154Z 02016KT 14/12 A2988 RMK A01 T01420119  RH  086%=      5-min Rain = 0
KEN1 231155Z 02016KT 14/12 A2988 RMK A01 T01420119  RH  086%=      5-min Rain = 0
KEN1 231156Z 03016KT 14/12 A2988 RMK A01 T01420118  RH  086%=      5-min Rain = 0
KEN1 231157Z 03016KT 14/12 A2987 RMK A01 T01420118  RH  086%=      5-min Rain = 0
KEN1 231158Z 03015KT 14/12 A2987 RMK A01 T01420118  RH  086%=      5-min Rain = 0
KEN1 231159Z 03014KT 14/12 A2988 RMK A01 T01420119  RH  086%=      5-min Rain = 0
KEN1 231200Z 03014KT 14/12 A2988 RMK A01 T01420119  RH  086%=      5-min Rain = 0
KEN1 231201Z 03017KT 14/12 A2988 RMK A01 T01420118  RH  086%=      5-min Rain = 0
KEN1 231202Z 03017KT 14/12 A2987 RMK A01 T01410118  RH  086%=      5-min Rain = 0
KEN1 231203Z 03016KT 14/12 A2988 RMK A01 T01420118  RH  086%=      5-min Rain = 0
KEN1 231204Z 02016KT 14/12 A2988 RMK A01 T01410118  RH  086%=      5-min Rain = 0
KEN1 231205Z 02016KT 14/12 A2988 RMK A01 T01410118  RH  086%=      5-min Rain = 0
KEN1 231206Z 02015KT 14/12 A2988 RMK A01 T01410118  RH  086%=      5-min Rain = 0
KEN1 231207Z 02014KT 14/12 A2988 RMK A01 T01410119  RH  086%=      5-min Rain = 0
KEN1 231208Z 02013KT 14/12 A2988 RMK A01 T01410118  RH  086%=      5-min Rain = 0
KEN1 231209Z 02012KT 14/12 A2988 RMK A01 T01410118  RH  086%=      5-min Rain = 0
KEN1 231210Z 02013KT 14/12 A2989 RMK A01 T01420118  RH  086%=      5-min Rain = 0
KEN1 231211Z 01012KT 14/12 A2989 RMK A01 T01410118  RH  086%=      5-min Rain = 0
KEN1 231212Z 02014KT 14/12 A2989 RMK A01 T01410118  RH  086%=      5-min Rain = 0
KEN1 231213Z 02012KT 14/12 A2989 RMK A01 T01410118  RH  086%=      5-min Rain = 0
KEN1 231214Z 02014KT 14/12 A2989 RMK A01 T01410119  RH  086%=      5-min Rain = 0
KEN1 231215Z 02015KT 14/12 A2989 RMK A01 T01410118  RH  086%=      5-min Rain = 0
KEN1 231216Z 02015KT 14/12 A2988 RMK A01 T01410119  RH  086%=      5-min Rain = 0
KEN1 231217Z 02015KT 14/12 A2988 RMK A01 T01410119  RH  086%=      5-min Rain = 0
KEN1 231218Z 02016KT 14/12 A2988 RMK A01 T01410118  RH  086%=      5-min Rain = 0
KEN1 231219Z 02015KT 14/12 A2988 RMK A01 T01410118  RH  086%=      5-min Rain = 0
KEN1 231220Z 02016KT 14/12 A2988 RMK A01 T01410118  RH  086%=      5-min Rain = 0
KEN1 231221Z 02014KT 14/12 A2988 RMK A01 T01420119  RH  086%=      5-min Rain = 0
KEN1 231222Z 02015KT 14/12 A2988 RMK A01 T01410119  RH  086%=      5-min Rain = 0
KEN1 231223Z 02014KT 14/12 A2988 RMK A01 T01410119  RH  086%=      5-min Rain = 0
KEN1 231224Z 02015KT 14/12 A2988 RMK A01 T01410119  RH  086%=      5-min Rain = 0
KEN1 231225Z 02013KT 14/12 A2988 RMK A01 T01410119  RH  086%=      5-min Rain = 0
KEN1 231226Z 02010KT 14/12 A2989 RMK A01 T01410119  RH  086%=      5-min Rain = 0
KEN1 231227Z 01013KT 14/12 A2989 RMK A01 T01420119  RH  086%=      5-min Rain = 0
KEN1 231228Z 01013KT 14/12 A2989 RMK A01 T01420119  RH  086%=      5-min Rain = 0
KEN1 231229Z 01014KT 14/12 A2988 RMK A01 T01420119  RH  086%=      5-min Rain = 0
KEN1 231230Z 02016KT 14/12 A2988 RMK A01 T01420119  RH  086%=      5-min Rain = 0
KEN1 231231Z 01016KT 14/12 A2988 RMK A01 T01420119  RH  086%=      5-min Rain = 0
KEN1 231232Z 01017KT 14/12 A2988 RMK A01 T01420119  RH  086%=      5-min Rain = 0
KEN1 231233Z 02018KT 14/12 A2988 RMK A01 T01420119  RH  086%=      5-min Rain = 0
KEN1 231234Z 02014KT 14/12 A2988 RMK A01 T01420119  RH  086%=      5-min Rain = 0
KEN1 231235Z 02016KT 14/12 A2988 RMK A01 T01420119  RH  086%=      5-min Rain = 0
KEN1 231236Z 03017KT 14/12 A2988 RMK A01 T01420119  RH  086%=      5-min Rain = 0
KEN1 231237Z 03017KT 14/12 A2988 RMK A01 T01420120  RH  086%=      5-min Rain = 0
KEN1 231238Z 03015KT 14/12 A2989 RMK A01 T01420119  RH  086%=      5-min Rain = 0
KEN1 231239Z 03013KT 14/12 A2989 RMK A01 T01420119  RH  086%=      5-min Rain = 0
KEN1 231240Z 02013KT 14/12 A2989 RMK A01 T01420120  RH  086%=      5-min Rain = 0
KEN1 231241Z 02012KT 14/12 A2989 RMK A01 T01430120  RH  086%=      5-min Rain = 0
KEN1 231242Z 02014KT 14/12 A2989 RMK A01 T01430120  RH  086%=      5-min Rain = 0
KEN1 231243Z 01012KT 14/12 A2989 RMK A01 T01430120  RH  086%=      5-min Rain = 0
KEN1 231244Z 01014KT 14/12 A2989 RMK A01 T01430120  RH  086%=      5-min Rain = 0
KEN1 231245Z 01015KT 14/12 A2989 RMK A01 T01430120  RH  086%=      5-min Rain = 0
KEN1 231246Z 01015KT 14/12 A299 RMK A01 T01430120  RH  086%=      5-min Rain = 0
KEN1 231247Z 01015KT 14/12 A299 RMK A01 T01430120  RH  086%=      5-min Rain = 0
KEN1 231248Z 00013KT 14/12 A299 RMK A01 T01430120  RH  086%=      5-min Rain = 0
KEN1 231249Z 01014KT 14/12 A2989 RMK A01 T01430120  RH  086%=      5-min Rain = 0
KEN1 231250Z 01016KT 14/12 A2989 RMK A01 T01430120  RH  086%=      5-min Rain = 0
KEN1 231251Z 00015KT 14/12 A2989 RMK A01 T01430120  RH  086%=      5-min Rain = 0
KEN1 231252Z 00014KT 14/12 A2989 RMK A01 T01430120  RH  086%=      5-min Rain = 0
KEN1 231253Z 01015KT 14/12 A2989 RMK A01 T01430120  RH  086%=      5-min Rain = 0
KEN1 231254Z 01014KT 14/12 A2989 RMK A01 T01430120  RH  086%=      5-min Rain = 0
KEN1 231255Z 01015KT 14/12 A299 RMK A01 T01430120  RH  086%=      5-min Rain = 0
KEN1 231256Z 02012KT 14/12 A299 RMK A01 T01430120  RH  086%=      5-min Rain = 0
KEN1 231257Z 02015KT 14/12 A299 RMK A01 T01430120  RH  086%=      5-min Rain = 0
KEN1 231258Z 02015KT 14/12 A2989 RMK A01 T01430119  RH  086%=      5-min Rain = 0
KEN1 231259Z 02015KT 14/12 A2989 RMK A01 T01430120  RH  086%=      5-min Rain = 0
KEN1 231300Z 02014KT 14/12 A2989 RMK A01 T01430120  RH  086%=      5-min Rain = 0
KEN1 231301Z 02013KT 14/12 A299 RMK A01 T01430120  RH  086%=      5-min Rain = 0
KEN1 231302Z 01011KT 14/12 A299 RMK A01 T01430120  RH  086%=      5-min Rain = 0
KEN1 231303Z 00012KT 14/12 A299 RMK A01 T01430120  RH  086%=      5-min Rain = 0
KEN1 231304Z 36010KT 14/12 A299 RMK A01 T01430120  RH  086%=      5-min Rain = 0
KEN1 231305Z 35012KT 14/12 A2991 RMK A01 T01430121  RH  086%=      5-min Rain = 0
KEN1 231306Z 35013KT 14/12 A2991 RMK A01 T01430120  RH  086%=      5-min Rain = 0
KEN1 231307Z 00014KT 14/12 A2991 RMK A01 T01430120  RH  086%=      5-min Rain = 0
KEN1 231308Z 01013KT 14/12 A299 RMK A01 T01430120  RH  086%=      5-min Rain = 0
KEN1 231309Z 02013KT 14/12 A299 RMK A01 T01430120  RH  086%=      5-min Rain = 0
KEN1 231310Z 01014KT 14/12 A299 RMK A01 T01440120  RH  086%=      5-min Rain = 0
KEN1 231311Z 01014KT 14/12 A299 RMK A01 T01440120  RH  086%=      5-min Rain = 0
KEN1 231312Z 01012KT 14/12 A299 RMK A01 T01440120  RH  086%=      5-min Rain = 0
KEN1 231313Z 01011KT 15/12 A299 RMK A01 T01450121  RH  086%=      5-min Rain = 0
KEN1 231314Z 01012KT 15/12 A299 RMK A01 T01450121  RH  086%=      5-min Rain = 0
KEN1 231315Z 36011KT 15/12 A299 RMK A01 T01450121  RH  085%=      5-min Rain = 0
KEN1 231316Z 36012KT 15/12 A2991 RMK A01 T01450120  RH  085%=      5-min Rain = 0
KEN1 231317Z 00012KT 15/12 A2991 RMK A01 T01450121  RH  085%=      5-min Rain = 0
KEN1 231318Z 01012G17KT 14/12 A2991 RMK A01 T01440120  RH  085%=      5-min Rain = 0
KEN1 231319Z 01014KT 14/12 A2991 RMK A01 T01440120  RH  085%=      5-min Rain = 0
KEN1 231320Z 01013KT 14/12 A2991 RMK A01 T01440120  RH  086%=      5-min Rain = 0
KEN1 231321Z 01015KT 14/12 A299 RMK A01 T01440120  RH  086%=      5-min Rain = 0
KEN1 231322Z 01015KT 14/12 A299 RMK A01 T01440120  RH  085%=      5-min Rain = 0
KEN1 231323Z 00015KT 14/12 A299 RMK A01 T01440119  RH  085%=      5-min Rain = 0
KEN1 231324Z 00015KT 14/12 A2991 RMK A01 T01440120  RH  085%=      5-min Rain = 0
KEN1 231325Z 00014KT 14/12 A2991 RMK A01 T01440119  RH  085%=      5-min Rain = 0
KEN1 231326Z 00014KT 14/12 A2991 RMK A01 T01430119  RH  085%=      5-min Rain = 0
KEN1 231327Z 00014KT 14/12 A2991 RMK A01 T01430119  RH  085%=      5-min Rain = 0
KEN1 231328Z 00012KT 14/12 A2991 RMK A01 T01430119  RH  085%=      5-min Rain = 0
KEN1 231329Z 01014KT 14/12 A2991 RMK A01 T01430118  RH  085%=      5-min Rain = 0
KEN1 231330Z 01015KT 14/12 A2991 RMK A01 T01430118  RH  085%=      5-min Rain = 0
KEN1 231331Z 02013KT 14/12 A2991 RMK A01 T01430118  RH  085%=      5-min Rain = 0
KEN1 231332Z 01014KT 14/12 A299 RMK A01 T01430118  RH  085%=      5-min Rain = 0
KEN1 231333Z 01012KT 14/12 A299 RMK A01 T01430118  RH  085%=      5-min Rain = 0
KEN1 231334Z 01013KT 14/12 A299 RMK A01 T01440119  RH  085%=      5-min Rain = 0
KEN1 231335Z 00012KT 15/12 A299 RMK A01 T01450119  RH  084%=      5-min Rain = 0
KEN1 231336Z 01013KT 15/12 A2991 RMK A01 T01450119  RH  084%=      5-min Rain = 0
KEN1 231337Z 01014KT 15/12 A2991 RMK A01 T01450118  RH  084%=      5-min Rain = 0
KEN1 231338Z 01012KT 15/12 A2991 RMK A01 T01450118  RH  084%=      5-min Rain = 0
KEN1 231339Z 36012KT 15/12 A2991 RMK A01 T01450119  RH  084%=      5-min Rain = 0
KEN1 231340Z 36014KT 15/12 A2991 RMK A01 T01450119  RH  085%=      5-min Rain = 0
KEN1 231341Z 00015KT 15/12 A2991 RMK A01 T01450119  RH  084%=      5-min Rain = 0
KEN1 231342Z 00015KT 14/12 A2991 RMK A01 T01430117  RH  084%=      5-min Rain = 0
KEN1 231343Z 01015KT 14/12 A2991 RMK A01 T01420117  RH  085%=      5-min Rain = 0
KEN1 231344Z 36016KT 14/12 A2991 RMK A01 T01420116  RH  085%=      5-min Rain = 0
KEN1 231345Z 36014KT 14/12 A2991 RMK A01 T01410116  RH  085%=      5-min Rain = 0
KEN1 231346Z 36013KT 14/12 A2991 RMK A01 T01420115  RH  084%=      5-min Rain = 0
KEN1 231347Z 36014KT 14/12 A2991 RMK A01 T01420115  RH  084%=      5-min Rain = 0
KEN1 231348Z 36013KT 14/12 A2991 RMK A01 T01420116  RH  084%=      5-min Rain = 0
KEN1 231349Z 00013KT 14/12 A2991 RMK A01 T01430116  RH  084%=      5-min Rain = 0
KEN1 231350Z 00010KT 14/12 A2991 RMK A01 T01430116  RH  084%=      5-min Rain = 0
KEN1 231351Z 35013KT 14/12 A2991 RMK A01 T01430116  RH  084%=      5-min Rain = 0
KEN1 231352Z 36015KT 14/12 A2991 RMK A01 T01430115  RH  083%=      5-min Rain = 0
KEN1 231353Z 36013KT 14/12 A2991 RMK A01 T01420116  RH  084%=      5-min Rain = 0
KEN1 231354Z 36013KT 14/12 A2991 RMK A01 T01420116  RH  084%=      5-min Rain = 0
KEN1 231355Z 00012KT 14/12 A2991 RMK A01 T01420115  RH  084%=      5-min Rain = 0
KEN1 231356Z 00011KT 14/12 A2991 RMK A01 T01430116  RH  084%=      5-min Rain = 0
KEN1 231357Z 01012KT 14/12 A2991 RMK A01 T01430115  RH  083%=      5-min Rain = 0
KEN1 231358Z 00014KT 14/12 A2991 RMK A01 T01430115  RH  083%=      5-min Rain = 0
KEN1 231359Z 01015KT 14/12 A2991 RMK A01 T01420115  RH  083%=      5-min Rain = 0
KEN1 231400Z 01015KT 14/12 A2991 RMK A01 T01420115  RH  084%=      5-min Rain = 0
KEN1 231401Z 01014KT 14/12 A2991 RMK A01 T01420115  RH  084%=      5-min Rain = 0
KEN1 231402Z 00013KT 14/12 A2991 RMK A01 T01420115  RH  084%=      5-min Rain = 0
KEN1 231403Z 01012KT 14/12 A2991 RMK A01 T01410115  RH  084%=      5-min Rain = 0
KEN1 231404Z 01012KT 14/12 A2991 RMK A01 T01420115  RH  084%=      5-min Rain = 0
KEN1 231405Z 00013KT 14/12 A2992 RMK A01 T01430115  RH  083%=      5-min Rain = 0
KEN1 231406Z 35014KT 14/12 A2992 RMK A01 T01430115  RH  083%=      5-min Rain = 0
KEN1 231407Z 35015KT 14/12 A2992 RMK A01 T01440115  RH  083%=      5-min Rain = 0
KEN1 231408Z 34015KT 15/12 A2992 RMK A01 T01450115  RH  082%=      5-min Rain = 0
KEN1 231409Z 35016KT 14/11 A2992 RMK A01 T01440114  RH  082%=      5-min Rain = 0
KEN1 231410Z 35016KT 14/11 A2992 RMK A01 T01420113  RH  083%=      5-min Rain = 0
KEN1 231411Z 00014KT 14/11 A2992 RMK A01 T01400113  RH  084%=      5-min Rain = 0
KEN1 231412Z 01014KT 14/11 A2992 RMK A01 T01390113  RH  084%=      5-min Rain = 0
KEN1 231413Z 01013KT 14/11 A2992 RMK A01 T01390113  RH  084%=      5-min Rain = 0
KEN1 231414Z 01012KT 14/11 A2992 RMK A01 T01390113  RH  084%=      5-min Rain = 0
KEN1 231415Z 36014KT 14/11 A2992 RMK A01 T01390113  RH  085%=      5-min Rain = 0
KEN1 231416Z 00016KT 14/11 A2991 RMK A01 T01380112  RH  084%=      5-min Rain = 0
KEN1 231417Z 35016KT 14/11 A2991 RMK A01 T01380112  RH  084%=      5-min Rain = 0
KEN1 231418Z 36015KT 14/11 A2991 RMK A01 T01370112  RH  085%=      5-min Rain = 0
KEN1 231419Z 36013KT 14/11 A2992 RMK A01 T01370112  RH  085%=      5-min Rain = 0
KEN1 231420Z 01014KT 14/11 A2992 RMK A01 T01370112  RH  085%=      5-min Rain = 0
KEN1 231421Z 01013KT 14/11 A2992 RMK A01 T01370112  RH  085%=      5-min Rain = 0
KEN1 231422Z 01014KT 14/11 A2992 RMK A01 T01370112  RH  085%=      5-min Rain = 0
KEN1 231423Z 00013KT 14/11 A2992 RMK A01 T01360112  RH  085%=      5-min Rain = 0
KEN1 231424Z 01010KT 14/11 A2992 RMK A01 T01360112  RH  086%=      5-min Rain = 0
KEN1 231425Z 35010KT 14/11 A2992 RMK A01 T01370114  RH  086%=      5-min Rain = 0
KEN1 231426Z 34011KT 14/11 A2992 RMK A01 T01380114  RH  085%=      5-min Rain = 0
KEN1 231427Z 35013KT 14/11 A2993 RMK A01 T01380113  RH  085%=      5-min Rain = 0
KEN1 231428Z 35015KT 14/11 A2993 RMK A01 T01370112  RH  085%=      5-min Rain = 0
KEN1 231429Z 35016KT 14/11 A2993 RMK A01 T01360111  RH  085%=      5-min Rain = 0
KEN1 231430Z 35014KT 14/11 A2993 RMK A01 T01350111  RH  085%=      5-min Rain = 0
KEN1 231431Z 00012KT 13/11 A2992 RMK A01 T01340111  RH  086%=      5-min Rain = 0
KEN1 231432Z 01014KT 14/11 A2992 RMK A01 T01350111  RH  086%=      5-min Rain = 0
KEN1 231433Z 36013KT 14/11 A2992 RMK A01 T01360111  RH  085%=      5-min Rain = 0
KEN1 231434Z 01011KT 14/11 A2992 RMK A01 T01360111  RH  085%=      5-min Rain = 0
KEN1 231435Z 00011KT 14/11 A2992 RMK A01 T01370112  RH  085%=      5-min Rain = 0
KEN1 231436Z 36010KT 14/11 A2992 RMK A01 T01380113  RH  085%=      5-min Rain = 0
KEN1 231437Z 35014KT 14/11 A2993 RMK A01 T01390113  RH  084%=      5-min Rain = 0
KEN1 231438Z 35014KT 14/11 A2993 RMK A01 T01380112  RH  084%=      5-min Rain = 0
KEN1 231439Z 36013KT 14/11 A2993 RMK A01 T01370111  RH  084%=      5-min Rain = 0
KEN1 231440Z 35011KT 14/11 A2993 RMK A01 T01370112  RH  085%=      5-min Rain = 0
KEN1 231441Z 35014KT 14/11 A2993 RMK A01 T01370112  RH  085%=      5-min Rain = 0
KEN1 231442Z 00012KT 14/11 A2993 RMK A01 T01360111  RH  085%=      5-min Rain = 0
KEN1 231443Z 00015KT 14/11 A2993 RMK A01 T01360111  RH  085%=      5-min Rain = 0
KEN1 231444Z 01014KT 14/11 A2993 RMK A01 T01350111  RH  085%=      5-min Rain = 0
KEN1 231445Z 00013KT 14/11 A2993 RMK A01 T01350111  RH  085%=      5-min Rain = 0
KEN1 231446Z 36014KT 14/11 A2993 RMK A01 T01360111  RH  085%=      5-min Rain = 0
KEN1 231447Z 00014KT 14/11 A2993 RMK A01 T01370112  RH  085%=      5-min Rain = 0
KEN1 231448Z 36012KT 14/11 A2993 RMK A01 T01380113  RH  085%=      5-min Rain = 0
KEN1 231449Z 36013KT 14/11 A2993 RMK A01 T01390112  RH  084%=      5-min Rain = 0
KEN1 231450Z 36013KT 14/11 A2993 RMK A01 T01390112  RH  084%=      5-min Rain = 0
KEN1 231451Z 35012KT 14/11 A2993 RMK A01 T01380112  RH  084%=      5-min Rain = 0
KEN1 231452Z 35012KT 14/11 A2993 RMK A01 T01380112  RH  084%=      5-min Rain = 0
KEN1 231453Z 36013KT 14/11 A2993 RMK A01 T01370112  RH  085%=      5-min Rain = 0
KEN1 231454Z 35011KT 14/11 A2994 RMK A01 T01380112  RH  085%=      5-min Rain = 0
KEN1 231455Z 01012KT 14/11 A2994 RMK A01 T01370112  RH  085%=      5-min Rain = 0
KEN1 231456Z 00013KT 14/11 A2994 RMK A01 T01370112  RH  085%=      5-min Rain = 0
KEN1 231457Z 00013KT 14/11 A2994 RMK A01 T01370112  RH  085%=      5-min Rain = 0
KEN1 231458Z 00012KT 14/11 A2994 RMK A01 T01360112  RH  085%=      5-min Rain = 0
KEN1 231459Z 00013KT 14/11 A2993 RMK A01 T01370113  RH  085%=      5-min Rain = 0
KEN1 231500Z 00014KT 14/11 A2993 RMK A01 T01380112  RH  085%=      5-min Rain = 0
KEN1 231501Z 00014KT 14/11 A2993 RMK A01 T01380112  RH  084%=      5-min Rain = 0
KEN1 231502Z 00014KT 14/11 A2993 RMK A01 T01380112  RH  084%=      5-min Rain = 0
KEN1 231503Z 00012KT 14/11 A2993 RMK A01 T01370111  RH  084%=      5-min Rain = 0
KEN1 231504Z 00011KT 14/11 A2993 RMK A01 T01370111  RH  084%=      5-min Rain = 0
KEN1 231505Z 00011KT 14/11 A2993 RMK A01 T01380113  RH  085%=      5-min Rain = 0
KEN1 231506Z 00012KT 14/11 A2993 RMK A01 T01390112  RH  084%=      5-min Rain = 0
KEN1 231507Z 36012KT 14/11 A2993 RMK A01 T01390112  RH  084%=      5-min Rain = 0
KEN1 231508Z 35014KT 14/11 A2993 RMK A01 T01390112  RH  084%=      5-min Rain = 0
KEN1 231509Z 35014KT 14/11 A2993 RMK A01 T01390112  RH  084%=      5-min Rain = 0
KEN1 231510Z 36012KT 14/11 A2993 RMK A01 T01380111  RH  084%=      5-min Rain = 0
KEN1 231511Z 36011KT 14/11 A2993 RMK A01 T01380111  RH  084%=      5-min Rain = 0
KEN1 231512Z 35013KT 14/11 A2993 RMK A01 T01380111  RH  084%=      5-min Rain = 0
KEN1 231513Z 35013KT 14/11 A2994 RMK A01 T01380111  RH  084%=      5-min Rain = 0
KEN1 231514Z 35014KT 14/11 A2994 RMK A01 T01380111  RH  084%=      5-min Rain = 0
KEN1 231515Z 00012KT 14/11 A2994 RMK A01 T01370110  RH  084%=      5-min Rain = 0
KEN1 231516Z 35011KT 14/11 A2995 RMK A01 T01370111  RH  084%=      5-min Rain = 0
KEN1 231517Z 35013KT 14/11 A2995 RMK A01 T01380111  RH  084%=      5-min Rain = 0
KEN1 231518Z 35013KT 14/11 A2995 RMK A01 T01370110  RH  084%=      5-min Rain = 0
KEN1 231519Z 00013KT 14/11 A2995 RMK A01 T01360110  RH  084%=      5-min Rain = 0
KEN1 231520Z 01012KT 14/11 A2995 RMK A01 T01360110  RH  084%=      5-min Rain = 0
KEN1 231521Z 00011KT 14/11 A2995 RMK A01 T01360110  RH  084%=      5-min Rain = 0
KEN1 231522Z 00014KT 14/11 A2995 RMK A01 T01370111  RH  084%=      5-min Rain = 0
KEN1 231523Z 00013KT 14/11 A2995 RMK A01 T01370110  RH  084%=      5-min Rain = 0
KEN1 231524Z 00013KT 14/11 A2995 RMK A01 T01370111  RH  084%=      5-min Rain = 0
KEN1 231525Z 36012KT 14/11 A2995 RMK A01 T01370109  RH  084%=      5-min Rain = 0
KEN1 231526Z 01012KT 14/11 A2995 RMK A01 T01370110  RH  084%=      5-min Rain = 0
KEN1 231527Z 01012KT 14/11 A2995 RMK A01 T01370110  RH  084%=      5-min Rain = 0
KEN1 231528Z 01011KT 14/11 A2995 RMK A01 T01370110  RH  083%=      5-min Rain = 0
KEN1 231529Z 00012KT 14/11 A2995 RMK A01 T01380109  RH  083%=      5-min Rain = 0
KEN1 231530Z 00012KT 14/11 A2995 RMK A01 T01380110  RH  083%=      5-min Rain = 0
KEN1 231531Z 00012KT 14/11 A2995 RMK A01 T01380109  RH  083%=      5-min Rain = 0
KEN1 231532Z 00013KT 14/11 A2995 RMK A01 T01370108  RH  083%=      5-min Rain = 0
KEN1 231533Z 36011KT 14/11 A2995 RMK A01 T01370109  RH  083%=      5-min Rain = 0
KEN1 231534Z 00010KT 14/11 A2995 RMK A01 T01370109  RH  083%=      5-min Rain = 0
KEN1 231535Z 00012KT 14/11 A2995 RMK A01 T01370109  RH  083%=      5-min Rain = 0
KEN1 231536Z 36015KT 14/11 A2995 RMK A01 T01370108  RH  083%=      5-min Rain = 0
KEN1 231537Z 36014KT 14/11 A2995 RMK A01 T01360108  RH  083%=      5-min Rain = 0
KEN1 231538Z 00013KT 14/11 A2995 RMK A01 T01360108  RH  083%=      5-min Rain = 0
KEN1 231539Z 01011KT 14/11 A2995 RMK A01 T01360108  RH  083%=      5-min Rain = 0
KEN1 231540Z 00011KT 14/11 A2995 RMK A01 T01360108  RH  083%=      5-min Rain = 0
KEN1 231541Z 00012KT 14/11 A2995 RMK A01 T01360108  RH  083%=      5-min Rain = 0
KEN1 231542Z 00012KT 14/11 A2995 RMK A01 T01360108  RH  083%=      5-min Rain = 0
KEN1 231543Z 01013KT 14/11 A2995 RMK A01 T01360108  RH  083%=      5-min Rain = 0
KEN1 231544Z 01012KT 14/11 A2995 RMK A01 T01350107  RH  083%=      5-min Rain = 0
KEN1 231545Z 02012KT 14/11 A2995 RMK A01 T01350107  RH  083%=      5-min Rain = 0
KEN1 231546Z 01011KT 14/11 A2995 RMK A01 T01350107  RH  083%=      5-min Rain = 0
KEN1 231547Z 01014KT 14/11 A2995 RMK A01 T01350106  RH  083%=      5-min Rain = 0
KEN1 231548Z 01011KT 14/11 A2995 RMK A01 T01350106  RH  083%=      5-min Rain = 0
KEN1 231549Z 00012KT 14/11 A2995 RMK A01 T01360108  RH  083%=      5-min Rain = 0
KEN1 231550Z 36010KT 14/11 A2995 RMK A01 T01370108  RH  083%=      5-min Rain = 0
KEN1 231551Z 01011KT 14/11 A2995 RMK A01 T01380109  RH  083%=      5-min Rain = 0
KEN1 231552Z 01014KT 14/11 A2995 RMK A01 T01380108  RH  082%=      5-min Rain = 0
KEN1 231553Z 00015G20KT 14/11 A2995 RMK A01 T01380107  RH  082%=      5-min Rain = 0
KEN1 231554Z 01013KT 14/11 A2995 RMK A01 T01360105  RH  082%=      5-min Rain = 0
KEN1 231555Z 01014KT 14/11 A2995 RMK A01 T01360105  RH  082%=      5-min Rain = 0
KEN1 231556Z 01014G19KT 14/11 A2995 RMK A01 T01350105  RH  082%=      5-min Rain = 0
KEN1 231557Z 02017KT 14/10 A2995 RMK A01 T01350104  RH  082%=      5-min Rain = 0
KEN1 231558Z 02014KT 13/10 A2995 RMK A01 T01340103  RH  081%=      5-min Rain = 0
KEN1 231559Z 01015KT 13/10 A2995 RMK A01 T01330103  RH  082%=      5-min Rain = 0
KEN1 231600Z 01017KT 13/10 A2995 RMK A01 T01330102  RH  082%=      5-min Rain = 0
KEN1 231601Z 01016KT 13/10 A2995 RMK A01 T01320102  RH  082%=      5-min Rain = 0
KEN1 231602Z 01015KT 13/10 A2995 RMK A01 T01310102  RH  082%=      5-min Rain = 0
KEN1 231603Z 01016KT 13/10 A2995 RMK A01 T01310102  RH  082%=      5-min Rain = 0
KEN1 231604Z 01015KT 13/10 A2995 RMK A01 T01310102  RH  082%=      5-min Rain = 0
KEN1 231605Z 02014KT 13/10 A2995 RMK A01 T01320102  RH  082%=      5-min Rain = 0
KEN1 231606Z 02014KT 13/10 A2995 RMK A01 T01330102  RH  081%=      5-min Rain = 0
KEN1 231607Z 02014KT 13/10 A2995 RMK A01 T01330102  RH  081%=      5-min Rain = 0
KEN1 231608Z 01013KT 14/10 A2995 RMK A01 T01350103  RH  081%=      5-min Rain = 0
KEN1 231609Z 01015KT 14/10 A2995 RMK A01 T01350103  RH  080%=      5-min Rain = 0
KEN1 231610Z 02016KT 14/10 A2995 RMK A01 T01350101  RH  080%=      5-min Rain = 0
KEN1 231611Z 01013KT 13/10 A2995 RMK A01 T01340101  RH  080%=      5-min Rain = 0
KEN1 231612Z 01013KT 13/10 A2996 RMK A01 T01340101  RH  081%=      5-min Rain = 0
KEN1 231613Z 02015KT 14/10 A2996 RMK A01 T01350102  RH  080%=      5-min Rain = 0
KEN1 231614Z 01013KT 14/10 A2996 RMK A01 T01350101  RH  080%=      5-min Rain = 0
KEN1 231615Z 01016KT 13/10 A2996 RMK A01 T01340100  RH  080%=      5-min Rain = 0
KEN1 231616Z 00015KT 13/10 A2996 RMK A01 T01330099  RH  080%=      5-min Rain = 0
KEN1 231617Z 36016KT 13/10 A2996 RMK A01 T01310099  RH  081%=      5-min Rain = 0
KEN1 231618Z 36013KT 13/10 A2996 RMK A01 T01310099  RH  081%=      5-min Rain = 0
KEN1 231619Z 01016KT 13/10 A2996 RMK A01 T01300098  RH  081%=      5-min Rain = 0
KEN1 231620Z 01014KT 13/10 A2996 RMK A01 T01300097  RH  080%=      5-min Rain = 0
KEN1 231621Z 01015KT 13/10 A2996 RMK A01 T01300097  RH  081%=      5-min Rain = 0
KEN1 231622Z 01014KT 13/10 A2996 RMK A01 T01290097  RH  080%=      5-min Rain = 0
KEN1 231623Z 02014KT 13/10 A2996 RMK A01 T01290096  RH  081%=      5-min Rain = 0
KEN1 231624Z 02016KT 13/10 A2996 RMK A01 T01290095  RH  080%=      5-min Rain = 0
KEN1 231625Z 02016KT 13/09 A2996 RMK A01 T01280094  RH  080%=      5-min Rain = 0
KEN1 231626Z 02013KT 13/09 A2996 RMK A01 T01260094  RH  080%=      5-min Rain = 0
KEN1 231627Z 02014KT 13/09 A2996 RMK A01 T01260094  RH  081%=      5-min Rain = 0
KEN1 231628Z 01011KT 13/09 A2996 RMK A01 T01260094  RH  081%=      5-min Rain = 0
KEN1 231629Z 02012KT 13/10 A2996 RMK A01 T01280095  RH  081%=      5-min Rain = 0
KEN1 231630Z 01011KT 13/10 A2996 RMK A01 T01290095  RH  079%=      5-min Rain = 0
KEN1 231631Z 01010KT 13/10 A2996 RMK A01 T01300095  RH  079%=      5-min Rain = 0
KEN1 231632Z 02012KT 13/09 A2996 RMK A01 T01310094  RH  079%=      5-min Rain = 0
KEN1 231633Z 01014G19KT 13/09 A2996 RMK A01 T01310093  RH  078%=      5-min Rain = 0
KEN1 231634Z 01017KT 13/09 A2996 RMK A01 T01290091  RH  078%=      5-min Rain = 0
KEN1 231635Z 01014KT 13/09 A2996 RMK A01 T01260090  RH  079%=      5-min Rain = 0
KEN1 231636Z 00016KT 13/09 A2996 RMK A01 T01250090  RH  079%=      5-min Rain = 0
KEN1 231637Z 01016KT 12/09 A2996 RMK A01 T01240089  RH  079%=      5-min Rain = 0
KEN1 231638Z 01016KT 12/09 A2996 RMK A01 T01230089  RH  080%=      5-min Rain = 0
KEN1 231639Z 01017KT 12/09 A2996 RMK A01 T01230089  RH  080%=      5-min Rain = 0
KEN1 231640Z 00015KT 12/09 A2996 RMK A01 T01230090  RH  080%=      5-min Rain = 0
KEN1 231641Z 01016KT 12/09 A2996 RMK A01 T01240090  RH  080%=      5-min Rain = 0
KEN1 231642Z 01015KT 12/09 A2996 RMK A01 T01240090  RH  079%=      5-min Rain = 0
KEN1 231643Z 01017G22KT 12/09 A2996 RMK A01 T01240089  RH  079%=      5-min Rain = 0
KEN1 231644Z 01018KT 12/09 A2996 RMK A01 T01230089  RH  079%=      5-min Rain = 0
KEN1 231645Z 02017KT 12/09 A2996 RMK A01 T01220088  RH  080%=      5-min Rain = 0
KEN1 231646Z 02016KT 12/09 A2996 RMK A01 T01210088  RH  080%=      5-min Rain = 0
KEN1 231647Z 01016KT 12/09 A2996 RMK A01 T01210088  RH  080%=      5-min Rain = 0
KEN1 231648Z 00014KT 12/09 A2996 RMK A01 T01200087  RH  080%=      5-min Rain = 0
KEN1 231649Z 00016G21KT 12/09 A2996 RMK A01 T01220089  RH  081%=      5-min Rain = 0
KEN1 231650Z 01017KT 12/09 A2996 RMK A01 T01220088  RH  080%=      5-min Rain = 0
KEN1 231651Z 02014KT 12/09 A2996 RMK A01 T01220088  RH  080%=      5-min Rain = 0
KEN1 231652Z 02014KT 12/09 A2996 RMK A01 T01220088  RH  080%=      5-min Rain = 0
KEN1 231653Z 03017KT 12/09 A2996 RMK A01 T01230088  RH  079%=      5-min Rain = 0
KEN1 231654Z 02016KT 12/09 A2997 RMK A01 T01230088  RH  079%=      5-min Rain = 0
KEN1 231655Z 02014KT 12/09 A2997 RMK A01 T01220087  RH  079%=      5-min Rain = 0
KEN1 231656Z 01011KT 12/09 A2997 RMK A01 T01220088  RH  079%=      5-min Rain = 0
KEN1 231657Z 01013KT 12/09 A2997 RMK A01 T01230089  RH  079%=      5-min Rain = 0
KEN1 231658Z 36015KT 12/09 A2997 RMK A01 T01240089  RH  079%=      5-min Rain = 0
KEN1 231659Z 01016KT 12/09 A2997 RMK A01 T01240088  RH  079%=      5-min Rain = 0
KEN1 231700Z 00013KT 12/09 A2997 RMK A01 T01230088  RH  079%=      5-min Rain = 0
KEN1 231701Z 00013KT 12/09 A2997 RMK A01 T01230088  RH  079%=      5-min Rain = 0
KEN1 231702Z 00013KT 12/09 A2997 RMK A01 T01230089  RH  080%=      5-min Rain = 0
KEN1 231703Z 01013KT 12/09 A2997 RMK A01 T01240090  RH  080%=      5-min Rain = 0
KEN1 231704Z 00015KT 12/09 A2997 RMK A01 T01240087  RH  078%=      5-min Rain = 0
KEN1 231705Z 01016G22KT 12/09 A2997 RMK A01 T01230087  RH  079%=      5-min Rain = 0
KEN1 231706Z 01014KT 12/09 A2997 RMK A01 T01220087  RH  079%=      5-min Rain = 0
KEN1 231707Z 01014KT 12/09 A2997 RMK A01 T01220087  RH  079%=      5-min Rain = 0
KEN1 231708Z 01016KT 12/09 A2997 RMK A01 T01220087  RH  079%=      5-min Rain = 0
KEN1 231709Z 01014KT 12/09 A2997 RMK A01 T01220086  RH  079%=      5-min Rain = 0
KEN1 231710Z 00013KT 12/09 A2997 RMK A01 T01220087  RH  079%=      5-min Rain = 0
KEN1 231711Z 01018KT 12/09 A2997 RMK A01 T01220087  RH  079%=      5-min Rain = 0
KEN1 231712Z 01014KT 12/09 A2997 RMK A01 T01220086  RH  079%=      5-min Rain = 0
KEN1 231713Z 02013KT 12/09 A2997 RMK A01 T01210086  RH  079%=      5-min Rain = 0
KEN1 231714Z 02012KT 12/09 A2997 RMK A01 T01220086  RH  079%=      5-min Rain = 0
KEN1 231715Z 01012KT 12/09 A2997 RMK A01 T01230087  RH  078%=      5-min Rain = 0
KEN1 231716Z 00014KT 13/09 A2997 RMK A01 T01250087  RH  078%=      5-min Rain = 0
KEN1 231717Z 00017KT 12/09 A2997 RMK A01 T01240086  RH  077%=      5-min Rain = 0
KEN1 231718Z 02016KT 12/09 A2997 RMK A01 T01230085  RH  078%=      5-min Rain = 0
KEN1 231719Z 01015KT 12/08 A2997 RMK A01 T01220084  RH  078%=      5-min Rain = 0
KEN1 231720Z 01016KT 12/09 A2997 RMK A01 T01220086  RH  078%=      5-min Rain = 0
KEN1 231721Z 02016KT 12/09 A2997 RMK A01 T01240086  RH  078%=      5-min Rain = 0
KEN1 231722Z 02012KT 13/09 A2997 RMK A01 T01250086  RH  077%=      5-min Rain = 0
KEN1 231723Z 02013G18KT 13/09 A2997 RMK A01 T01260086  RH  077%=      5-min Rain = 0
KEN1 231724Z 01014KT 13/09 A2997 RMK A01 T01260086  RH  076%=      5-min Rain = 0
KEN1 231725Z 02017KT 13/09 A2997 RMK A01 T01250085  RH  076%=      5-min Rain = 0
KEN1 231726Z 01015KT 12/08 A2997 RMK A01 T01230083  RH  077%=      5-min Rain = 0
KEN1 231727Z 01015KT 12/09 A2997 RMK A01 T01220085  RH  078%=      5-min Rain = 0
KEN1 231728Z 02015KT 12/09 A2997 RMK A01 T01240086  RH  077%=      5-min Rain = 0
KEN1 231729Z 02015KT 13/09 A2997 RMK A01 T01250085  RH  077%=      5-min Rain = 0
KEN1 231730Z 02015KT 13/09 A2996 RMK A01 T01250085  RH  076%=      5-min Rain = 0
KEN1 231731Z 01015KT 13/09 A2996 RMK A01 T01250085  RH  077%=      5-min Rain = 0
KEN1 231732Z 01015KT 13/09 A2996 RMK A01 T01270087  RH  077%=      5-min Rain = 0
KEN1 231733Z 02017KT 13/09 A2996 RMK A01 T01290086  RH  075%=      5-min Rain = 0
KEN1 231734Z 02014KT 13/09 A2996 RMK A01 T01280086  RH  075%=      5-min Rain = 0
KEN1 231735Z 02013KT 13/09 A2996 RMK A01 T01280085  RH  075%=      5-min Rain = 0
KEN1 231736Z 02014G19KT 13/09 A2996 RMK A01 T01290087  RH  076%=      5-min Rain = 0
KEN1 231737Z 02016KT 13/09 A2996 RMK A01 T01300087  RH  075%=      5-min Rain = 0
KEN1 231738Z 02017KT 13/09 A2996 RMK A01 T01310087  RH  074%=      5-min Rain = 0
KEN1 231739Z 02017KT 13/09 A2996 RMK A01 T01310086  RH  074%=      5-min Rain = 0
KEN1 231740Z 03015KT 13/09 A2996 RMK A01 T01300086  RH  075%=      5-min Rain = 0
KEN1 231741Z 02013KT 13/09 A2996 RMK A01 T01300086  RH  075%=      5-min Rain = 0
KEN1 231742Z 02013KT 13/09 A2996 RMK A01 T01310087  RH  075%=      5-min Rain = 0
KEN1 231743Z 02014G19KT 13/09 A2996 RMK A01 T01340090  RH  074%=      5-min Rain = 0
KEN1 231744Z 02014KT 14/09 A2996 RMK A01 T01360087  RH  072%=      5-min Rain = 0
KEN1 231745Z 02015KT 13/09 A2996 RMK A01 T01340087  RH  073%=      5-min Rain = 0
KEN1 231746Z 02012KT 13/09 A2996 RMK A01 T01340088  RH  074%=      5-min Rain = 0
KEN1 231747Z 02015KT 14/09 A2996 RMK A01 T01360089  RH  073%=      5-min Rain = 0
KEN1 231748Z 02015KT 13/09 A2996 RMK A01 T01340086  RH  073%=      5-min Rain = 0
KEN1 231749Z 01017KT 13/09 A2996 RMK A01 T01330087  RH  074%=      5-min Rain = 0
KEN1 231750Z 02015KT 13/09 A2996 RMK A01 T01330087  RH  073%=      5-min Rain = 0
KEN1 231751Z 03014KT 13/09 A2996 RMK A01 T01330086  RH  073%=      5-min Rain = 0
KEN1 231752Z 01015KT 13/09 A2996 RMK A01 T01330087  RH  074%=      5-min Rain = 0
KEN1 231753Z 00015KT 13/09 A2996 RMK A01 T01340087  RH  073%=      5-min Rain = 0
KEN1 231754Z 01014KT 14/09 A2996 RMK A01 T01350089  RH  074%=      5-min Rain = 0
KEN1 231755Z 01014KT 14/09 A2996 RMK A01 T01360088  RH  073%=      5-min Rain = 0
KEN1 231756Z 01013KT 14/09 A2996 RMK A01 T01350087  RH  073%=      5-min Rain = 0
KEN1 231757Z 01015KT 14/09 A2996 RMK A01 T01360089  RH  073%=      5-min Rain = 0
KEN1 231758Z 02016KT 13/09 A2996 RMK A01 T01340085  RH  072%=      5-min Rain = 0
KEN1 231759Z 01015G20KT 13/09 A2996 RMK A01 T01320086  RH  074%=      5-min Rain = 0
KEN1 231800Z 01016KT 13/09 A2997 RMK A01 T01320087  RH  074%=      5-min Rain = 0
KEN1 231801Z 01015KT 13/09 A2997 RMK A01 T01330087  RH  074%=      5-min Rain = 0
KEN1 231802Z 01014KT 13/09 A2997 RMK A01 T01320086  RH  073%=      5-min Rain = 0
KEN1 231803Z 01012KT 13/09 A2997 RMK A01 T01310086  RH  074%=      5-min Rain = 0
KEN1 231804Z 36015KT 13/09 A2997 RMK A01 T01330087  RH  074%=      5-min Rain = 0
KEN1 231805Z 36014KT 14/09 A2997 RMK A01 T01350088  RH  073%=      5-min Rain = 0
KEN1 231806Z 36016KT 13/09 A2996 RMK A01 T01340087  RH  073%=      5-min Rain = 0
KEN1 231807Z 36016KT 13/09 A2996 RMK A01 T01320085  RH  073%=      5-min Rain = 0
KEN1 231808Z 00014KT 13/09 A2996 RMK A01 T01310086  RH  074%=      5-min Rain = 0
KEN1 231809Z 00014KT 13/09 A2996 RMK A01 T01310086  RH  074%=      5-min Rain = 0
KEN1 231810Z 00013KT 13/09 A2996 RMK A01 T01330088  RH  074%=      5-min Rain = 0
KEN1 231811Z 00015KT 14/09 A2996 RMK A01 T01380091  RH  073%=      5-min Rain = 0
KEN1 231812Z 35016KT 14/09 A2996 RMK A01 T01380088  RH  072%=      5-min Rain = 0
KEN1 231813Z 00013KT 14/09 A2996 RMK A01 T01360088  RH  073%=      5-min Rain = 0
KEN1 231814Z 36014KT 14/09 A2996 RMK A01 T01360087  RH  072%=      5-min Rain = 0
KEN1 231815Z 00013G18KT 13/09 A2996 RMK A01 T01330085  RH  072%=      5-min Rain = 0
KEN1 231816Z 00013KT 13/09 A2997 RMK A01 T01310086  RH  074%=      5-min Rain = 0
KEN1 231817Z 00015KT 13/09 A2996 RMK A01 T01320086  RH  074%=      5-min Rain = 0
KEN1 231818Z 35012KT 13/09 A2996 RMK A01 T01320087  RH  074%=      5-min Rain = 0
KEN1 231819Z 00015KT 13/09 A2996 RMK A01 T01340088  RH  074%=      5-min Rain = 0
KEN1 231820Z 00014KT 13/09 A2996 RMK A01 T01340086  RH  073%=      5-min Rain = 0
KEN1 231821Z 01014KT 14/09 A2996 RMK A01 T01350087  RH  073%=      5-min Rain = 0
KEN1 231822Z 01012KT 14/09 A2996 RMK A01 T01350086  RH  072%=      5-min Rain = 0
KEN1 231823Z 01014KT 14/09 A2996 RMK A01 T01360088  RH  073%=      5-min Rain = 0
KEN1 231824Z 01013KT 14/09 A2996 RMK A01 T01360086  RH  072%=      5-min Rain = 0
KEN1 231825Z 36012KT 13/09 A2996 RMK A01 T01330085  RH  072%=      5-min Rain = 0
KEN1 231826Z 36015KT 13/09 A2996 RMK A01 T01330087  RH  074%=      5-min Rain = 0
KEN1 231827Z 01014KT 14/09 A2996 RMK A01 T01350088  RH  073%=      5-min Rain = 0
KEN1 231828Z 01012KT 14/09 A2996 RMK A01 T01350087  RH  073%=      5-min Rain = 0
KEN1 231829Z 01013KT 14/09 A2996 RMK A01 T01360088  RH  073%=      5-min Rain = 0
KEN1 231830Z 01013KT 14/09 A2996 RMK A01 T01370087  RH  072%=      5-min Rain = 0
KEN1 231831Z 02015KT 14/09 A2996 RMK A01 T01370088  RH  072%=      5-min Rain = 0
KEN1 231832Z 02013KT 14/09 A2996 RMK A01 T01370086  RH  071%=      5-min Rain = 0
KEN1 231833Z 01012KT 14/09 A2996 RMK A01 T01350086  RH  072%=      5-min Rain = 0
KEN1 231834Z 01013KT 14/09 A2996 RMK A01 T01350087  RH  073%=      5-min Rain = 0
KEN1 231835Z 02013KT 14/09 A2996 RMK A01 T01350087  RH  073%=      5-min Rain = 0
KEN1 231836Z 01013KT 14/09 A2996 RMK A01 T01370088  RH  072%=      5-min Rain = 0
KEN1 231837Z 36011KT 14/09 A2996 RMK A01 T01380088  RH  072%=      5-min Rain = 0
KEN1 231838Z 36012KT 14/09 A2996 RMK A01 T01390089  RH  072%=      5-min Rain = 0
KEN1 231839Z 36014KT 14/09 A2996 RMK A01 T01390089  RH  072%=      5-min Rain = 0
KEN1 231840Z 00013G18KT 14/09 A2996 RMK A01 T01380088  RH  072%=      5-min Rain = 0
KEN1 231841Z 00014KT 14/09 A2996 RMK A01 T01380089  RH  072%=      5-min Rain = 0
KEN1 231842Z 00012KT 14/09 A2996 RMK A01 T01390089  RH  072%=      5-min Rain = 0
KEN1 231843Z 01013KT 14/09 A2996 RMK A01 T01410090  RH  072%=      5-min Rain = 0
KEN1 231844Z 00012KT 14/09 A2996 RMK A01 T01410089  RH  071%=      5-min Rain = 0
KEN1 231845Z 01013G18KT 14/09 A2996 RMK A01 T01400089  RH  071%=      5-min Rain = 0
KEN1 231846Z 01014KT 14/09 A2996 RMK A01 T01410090  RH  071%=      5-min Rain = 0
KEN1 231847Z 01012KT 14/09 A2996 RMK A01 T01410087  RH  070%=      5-min Rain = 0
KEN1 231848Z 01012KT 14/09 A2996 RMK A01 T01390088  RH  072%=      5-min Rain = 0
KEN1 231849Z 01016KT 14/09 A2996 RMK A01 T01400090  RH  072%=      5-min Rain = 0
KEN1 231850Z 00014KT 14/09 A2996 RMK A01 T01420089  RH  070%=      5-min Rain = 0
KEN1 231851Z 36011KT 14/09 A2996 RMK A01 T01420089  RH  071%=      5-min Rain = 0
KEN1 231852Z 35012KT 14/09 A2996 RMK A01 T01420091  RH  071%=      5-min Rain = 0
KEN1 231853Z 01013G18KT 14/09 A2996 RMK A01 T01440091  RH  070%=      5-min Rain = 0
KEN1 231854Z 35013KT 15/09 A2996 RMK A01 T01450091  RH  070%=      5-min Rain = 0
KEN1 231855Z 00014KT 15/09 A2996 RMK A01 T01450090  RH  070%=      5-min Rain = 0
KEN1 231856Z 01010KT 14/09 A2996 RMK A01 T01430087  RH  069%=      5-min Rain = 0
KEN1 231857Z 35012KT 14/09 A2996 RMK A01 T01410089  RH  071%=      5-min Rain = 0
KEN1 231858Z 34013G18KT 14/09 A2996 RMK A01 T01410090  RH  071%=      5-min Rain = 0
KEN1 231859Z 35015KT 14/09 A2996 RMK A01 T01420089  RH  071%=      5-min Rain = 0
KEN1 231900Z 01013KT 14/09 A2996 RMK A01 T01430090  RH  071%=      5-min Rain = 0
KEN1 231901Z 02013KT 15/09 A2996 RMK A01 T01450091  RH  070%=      5-min Rain = 0
KEN1 231902Z 01012KT 15/09 A2996 RMK A01 T01460089  RH  069%=      5-min Rain = 0
KEN1 231903Z 00015KT 14/09 A2996 RMK A01 T01440088  RH  069%=      5-min Rain = 0
KEN1 231904Z 01014G19KT 14/09 A2996 RMK A01 T01420089  RH  070%=      5-min Rain = 0
KEN1 231905Z 35014KT 14/09 A2996 RMK A01 T01430089  RH  070%=      5-min Rain = 0
KEN1 231906Z 00012G17KT 14/09 A2996 RMK A01 T01410090  RH  071%=      5-min Rain = 0
KEN1 231907Z 00014KT 14/09 A2996 RMK A01 T01440092  RH  071%=      5-min Rain = 0
KEN1 231908Z 36015KT 14/09 A2996 RMK A01 T01430088  RH  070%=      5-min Rain = 0
KEN1 231909Z 01014KT 14/09 A2996 RMK A01 T01410089  RH  071%=      5-min Rain = 0
KEN1 231910Z 01015KT 14/09 A2996 RMK A01 T01420089  RH  071%=      5-min Rain = 0
KEN1 231911Z 36011KT 14/09 A2996 RMK A01 T01420089  RH  070%=      5-min Rain = 0
KEN1 231912Z 35010G17KT 14/09 A2996 RMK A01 T01440091  RH  071%=      5-min Rain = 0
KEN1 231913Z 35013KT 15/09 A2996 RMK A01 T01470092  RH  069%=      5-min Rain = 0
KEN1 231914Z 36015KT 15/09 A2995 RMK A01 T01480091  RH  069%=      5-min Rain = 0
KEN1 231915Z 02015KT 15/09 A2995 RMK A01 T01480092  RH  069%=      5-min Rain = 0
KEN1 231916Z 02013KT 15/09 A2995 RMK A01 T01490091  RH  068%=      5-min Rain = 0
KEN1 231917Z 01014KT 15/09 A2995 RMK A01 T01500093  RH  068%=      5-min Rain = 0
KEN1 231918Z 02014KT 15/09 A2995 RMK A01 T01490089  RH  067%=      5-min Rain = 0
KEN1 231919Z 01011G16KT 15/09 A2995 RMK A01 T01470088  RH  068%=      5-min Rain = 0
KEN1 231920Z 03014KT 15/09 A2995 RMK A01 T01450089  RH  069%=      5-min Rain = 0
KEN1 231921Z 03012KT 15/09 A2995 RMK A01 T01470089  RH  068%=      5-min Rain = 0
KEN1 231922Z 02014KT 15/09 A2995 RMK A01 T01470089  RH  068%=      5-min Rain = 0
KEN1 231923Z 01013KT 15/09 A2995 RMK A01 T01480091  RH  069%=      5-min Rain = 0
KEN1 231924Z 01012KT 15/09 A2995 RMK A01 T01480091  RH  069%=      5-min Rain = 0
KEN1 231925Z 01015KT 15/09 A2995 RMK A01 T01480091  RH  069%=      5-min Rain = 0
KEN1 231926Z 01013KT 15/09 A2995 RMK A01 T01460089  RH  069%=      5-min Rain = 0
KEN1 231927Z 01013KT 15/09 A2995 RMK A01 T01460092  RH  070%=      5-min Rain = 0
KEN1 231928Z 01011G17KT 15/09 A2995 RMK A01 T01470091  RH  069%=      5-min Rain = 0
KEN1 231929Z 01015KT 15/09 A2995 RMK A01 T01500094  RH  069%=      5-min Rain = 0
KEN1 231930Z 00016KT 15/09 A2995 RMK A01 T01500091  RH  068%=      5-min Rain = 0
KEN1 231931Z 01015KT 15/09 A2995 RMK A01 T01490091  RH  068%=      5-min Rain = 0
KEN1 231932Z 01014KT 15/09 A2995 RMK A01 T01470090  RH  069%=      5-min Rain = 0
KEN1 231933Z 00012KT 15/09 A2995 RMK A01 T01450088  RH  068%=      5-min Rain = 0
KEN1 231934Z 01011KT 14/09 A2995 RMK A01 T01430089  RH  070%=      5-min Rain = 0
KEN1 231935Z 02014KT 15/09 A2995 RMK A01 T01450092  RH  070%=      5-min Rain = 0
KEN1 231936Z 01013KT 15/09 A2995 RMK A01 T01470091  RH  069%=      5-min Rain = 0
KEN1 231937Z 01013KT 15/09 A2995 RMK A01 T01470091  RH  069%=      5-min Rain = 0
KEN1 231938Z 00011KT 15/09 A2995 RMK A01 T01460090  RH  069%=      5-min Rain = 0
KEN1 231939Z 36015KT 15/09 A2995 RMK A01 T01480092  RH  069%=      5-min Rain = 0
KEN1 231940Z 01013KT 15/09 A2995 RMK A01 T01490092  RH  069%=      5-min Rain = 0
KEN1 231941Z 36014KT 15/09 A2994 RMK A01 T01500094  RH  069%=      5-min Rain = 0
KEN1 231942Z 00012KT 15/09 A2995 RMK A01 T01510094  RH  068%=      5-min Rain = 0
KEN1 231943Z 02011G16KT 15/09 A2995 RMK A01 T01510093  RH  068%=      5-min Rain = 0
KEN1 231944Z 01010KT 15/09 A2994 RMK A01 T01530093  RH  067%=      5-min Rain = 0
KEN1 231945Z 01010KT 16/09 A2995 RMK A01 T01550094  RH  067%=      5-min Rain = 0
KEN1 231946Z 02013KT 16/10 A2994 RMK A01 T01580095  RH  066%=      5-min Rain = 0
KEN1 231947Z 01013KT 16/09 A2994 RMK A01 T01590094  RH  066%=      5-min Rain = 0
KEN1 231948Z 00016KT 16/09 A2994 RMK A01 T01590093  RH  065%=      5-min Rain = 0
KEN1 231949Z 01014KT 16/09 A2995 RMK A01 T01560091  RH  065%=      5-min Rain = 0
KEN1 231950Z 36014KT 15/09 A2994 RMK A01 T01530091  RH  066%=      5-min Rain = 0
KEN1 231951Z 00016KT 15/09 A2994 RMK A01 T01540093  RH  067%=      5-min Rain = 0
KEN1 231952Z 00013KT 15/09 A2995 RMK A01 T01530092  RH  067%=      5-min Rain = 0
KEN1 231953Z 01016KT 15/09 A2995 RMK A01 T01500091  RH  067%=      5-min Rain = 0
KEN1 231954Z 00015KT 15/09 A2995 RMK A01 T01490091  RH  068%=      5-min Rain = 0
KEN1 231955Z 00016KT 15/09 A2995 RMK A01 T01470090  RH  069%=      5-min Rain = 0
KEN1 231956Z 00013KT 15/09 A2995 RMK A01 T01460090  RH  069%=      5-min Rain = 0
KEN1 231957Z 01010KT 15/09 A2994 RMK A01 T01460090  RH  069%=      5-min Rain = 0
KEN1 231958Z 01013KT 15/09 A2994 RMK A01 T01490093  RH  069%=      5-min Rain = 0
KEN1 231959Z 01012KT 15/09 A2994 RMK A01 T01520094  RH  068%=      5-min Rain = 0
KEN1 232000Z 03013KT 15/09 A2994 RMK A01 T01540093  RH  067%=      5-min Rain = 0
KEN1 232001Z 01015KT 15/09 A2994 RMK A01 T01540092  RH  067%=      5-min Rain = 0
KEN1 232002Z 01013G18KT 15/09 A2994 RMK A01 T01540093  RH  067%=      5-min Rain = 0
KEN1 232003Z 02015KT 16/09 A2994 RMK A01 T01560094  RH  066%=      5-min Rain = 0
KEN1 232004Z 36016KT 16/09 A2994 RMK A01 T01550092  RH  066%=      5-min Rain = 0
KEN1 232005Z 35015KT 15/09 A2994 RMK A01 T01540093  RH  067%=      5-min Rain = 0
KEN1 232006Z 36015KT 15/09 A2994 RMK A01 T01520092  RH  067%=      5-min Rain = 0
KEN1 232007Z 00015KT 15/09 A2994 RMK A01 T01520092  RH  067%=      5-min Rain = 0
KEN1 232008Z 01013KT 15/09 A2994 RMK A01 T01510091  RH  067%=      5-min Rain = 0
KEN1 232009Z 36014KT 15/09 A2994 RMK A01 T01510092  RH  068%=      5-min Rain = 0
KEN1 232010Z 36013KT 15/09 A2994 RMK A01 T01520093  RH  068%=      5-min Rain = 0
KEN1 232011Z 00016KT 15/09 A2994 RMK A01 T01540093  RH  067%=      5-min Rain = 0
KEN1 232012Z 36013KT 15/09 A2994 RMK A01 T01540092  RH  066%=      5-min Rain = 0
KEN1 232013Z 00012KT 15/09 A2994 RMK A01 T01530093  RH  067%=      5-min Rain = 0
KEN1 232014Z 36014KT 16/09 A2994 RMK A01 T01560094  RH  067%=      5-min Rain = 0
KEN1 232015Z 36016KT 16/09 A2994 RMK A01 T01570094  RH  066%=      5-min Rain = 0
KEN1 232016Z 35014KT 15/09 A2994 RMK A01 T01540093  RH  067%=      5-min Rain = 0
KEN1 232017Z 36012KT 16/10 A2994 RMK A01 T01550095  RH  067%=      5-min Rain = 0
KEN1 232018Z 01014KT 16/09 A2993 RMK A01 T01570094  RH  066%=      5-min Rain = 0
KEN1 232019Z 01014KT 16/09 A2993 RMK A01 T01560092  RH  066%=      5-min Rain = 0
KEN1 232020Z 01015KT 16/09 A2993 RMK A01 T01550093  RH  067%=      5-min Rain = 0
KEN1 232021Z 01012G17KT 16/09 A2993 RMK A01 T01560093  RH  066%=      5-min Rain = 0
KEN1 232022Z 02013KT 16/10 A2993 RMK A01 T01570095  RH  066%=      5-min Rain = 0
KEN1 232023Z 02014KT 16/09 A2993 RMK A01 T01610094  RH  065%=      5-min Rain = 0
KEN1 232024Z 03012KT 16/09 A2993 RMK A01 T01570091  RH  065%=      5-min Rain = 0
KEN1 232025Z 03013KT 16/09 A2993 RMK A01 T01570094  RH  066%=      5-min Rain = 0
KEN1 232026Z 03013KT 16/09 A2993 RMK A01 T01600094  RH  065%=      5-min Rain = 0
KEN1 232027Z 03014KT 16/09 A2993 RMK A01 T01600094  RH  065%=      5-min Rain = 0
KEN1 232028Z 02013KT 16/09 A2993 RMK A01 T01590093  RH  065%=      5-min Rain = 0
KEN1 232029Z 00015KT 16/10 A2993 RMK A01 T01590095  RH  066%=      5-min Rain = 0
KEN1 232030Z 36014KT 16/10 A2993 RMK A01 T01570095  RH  066%=      5-min Rain = 0
KEN1 232031Z 00014KT 16/10 A2993 RMK A01 T01570096  RH  067%=      5-min Rain = 0
KEN1 232032Z 01013KT 16/10 A2993 RMK A01 T01580096  RH  066%=      5-min Rain = 0
KEN1 232033Z 01013KT 16/09 A2993 RMK A01 T01580093  RH  065%=      5-min Rain = 0
KEN1 232034Z 01015KT 16/09 A2993 RMK A01 T01570094  RH  066%=      5-min Rain = 0
KEN1 232035Z 01016KT 16/10 A2993 RMK A01 T01570095  RH  066%=      5-min Rain = 0
KEN1 232036Z 02015KT 16/09 A2992 RMK A01 T01560094  RH  067%=      5-min Rain = 0
KEN1 232037Z 02014KT 16/09 A2992 RMK A01 T01560094  RH  067%=      5-min Rain = 0
KEN1 232038Z 02013KT 16/09 A2992 RMK A01 T01550092  RH  066%=      5-min Rain = 0
KEN1 232039Z 03013KT 16/10 A2992 RMK A01 T01560095  RH  067%=      5-min Rain = 0
KEN1 232040Z 01011KT 16/10 A2993 RMK A01 T01590097  RH  066%=      5-min Rain = 0
KEN1 232041Z 02017KT 16/10 A2992 RMK A01 T01620096  RH  065%=      5-min Rain = 0
KEN1 232042Z 01014KT 16/09 A2992 RMK A01 T01600094  RH  065%=      5-min Rain = 0
KEN1 232043Z 01016KT 16/10 A2992 RMK A01 T01580095  RH  066%=      5-min Rain = 0
KEN1 232044Z 02014KT 16/10 A2992 RMK A01 T01590096  RH  066%=      5-min Rain = 0
KEN1 232045Z 02011KT 16/09 A2992 RMK A01 T01610094  RH  064%=      5-min Rain = 0
KEN1 232046Z 02014KT 16/09 A2992 RMK A01 T01610094  RH  064%=      5-min Rain = 0
KEN1 232047Z 02013KT 16/09 A2992 RMK A01 T01600094  RH  065%=      5-min Rain = 0
KEN1 232048Z 03013G18KT 16/09 A2992 RMK A01 T01580094  RH  065%=      5-min Rain = 0
KEN1 232049Z 03013KT 16/10 A2992 RMK A01 T01580095  RH  066%=      5-min Rain = 0
KEN1 232050Z 02012KT 16/10 A2992 RMK A01 T01600096  RH  066%=      5-min Rain = 0
KEN1 232051Z 02011KT 16/10 A2992 RMK A01 T01640099  RH  065%=      5-min Rain = 0
KEN1 232052Z 02013KT 17/10 A2991 RMK A01 T01670098  RH  064%=      5-min Rain = 0
KEN1 232053Z 03010KT 17/10 A2991 RMK A01 T01660096  RH  063%=      5-min Rain = 0
KEN1 232054Z 03013G19KT 17/10 A2991 RMK A01 T01660100  RH  065%=      5-min Rain = 0
KEN1 232055Z 02016G21KT 17/10 A2991 RMK A01 T01700099  RH  063%=      5-min Rain = 0
KEN1 232056Z 36015KT 17/10 A2991 RMK A01 T01730100  RH  062%=      5-min Rain = 0
KEN1 232057Z 01015KT 17/10 A2991 RMK A01 T01690096  RH  062%=      5-min Rain = 0
KEN1 232058Z 03015KT 16/09 A2991 RMK A01 T01640094  RH  063%=      5-min Rain = 0
KEN1 232059Z 02014KT 16/10 A2991 RMK A01 T01620095  RH  064%=      5-min Rain = 0
KEN1 232100Z 03014KT 16/10 A2991 RMK A01 T01640095  RH  064%=      5-min Rain = 0
KEN1 232101Z 01011KT 16/10 A2991 RMK A01 T01620095  RH  064%=      5-min Rain = 0
KEN1 232102Z 02008KT 16/10 A2991 RMK A01 T01620096  RH  065%=      5-min Rain = 0
KEN1 232103Z 03013G19KT 17/10 A2991 RMK A01 T01660100  RH  065%=      5-min Rain = 0
KEN1 232104Z 02018KT 17/10 A2991 RMK A01 T01700097  RH  062%=      5-min Rain = 0
KEN1 232105Z 01013KT 17/09 A2991 RMK A01 T01660094  RH  062%=      5-min Rain = 0
KEN1 232106Z 02015G20KT 16/10 A299 RMK A01 T01630095  RH  064%=      5-min Rain = 0
KEN1 232107Z 02014G19KT 16/09 A2991 RMK A01 T01620094  RH  064%=      5-min Rain = 0
KEN1 232108Z 01011KT 16/10 A2991 RMK A01 T01610096  RH  065%=      5-min Rain = 0
KEN1 232109Z 03012KT 17/10 A2991 RMK A01 T01650097  RH  064%=      5-min Rain = 0
KEN1 232110Z 03016KT 17/10 A299 RMK A01 T01650096  RH  064%=      5-min Rain = 0
KEN1 232111Z 01013KT 16/09 A299 RMK A01 T01630094  RH  064%=      5-min Rain = 0
KEN1 232112Z 00013KT 16/10 A299 RMK A01 T01630098  RH  066%=      5-min Rain = 0
KEN1 232113Z 36013KT 17/10 A299 RMK A01 T01660098  RH  064%=      5-min Rain = 0
KEN1 232114Z 02014KT 17/10 A299 RMK A01 T01650099  RH  065%=      5-min Rain = 0
KEN1 232115Z 01017KT 17/10 A299 RMK A01 T01650098  RH  064%=      5-min Rain = 0
KEN1 232116Z 02013KT 16/10 A299 RMK A01 T01640098  RH  065%=      5-min Rain = 0
KEN1 232117Z 03014KT 16/10 A299 RMK A01 T01630097  RH  065%=      5-min Rain = 0
KEN1 232118Z 02012KT 16/10 A299 RMK A01 T01640100  RH  066%=      5-min Rain = 0
KEN1 232119Z 02012KT 17/10 A299 RMK A01 T01660099  RH  065%=      5-min Rain = 0
KEN1 232120Z 03012KT 16/10 A299 RMK A01 T01640097  RH  065%=      5-min Rain = 0
KEN1 232121Z 02012G17KT 16/10 A299 RMK A01 T01620098  RH  066%=      5-min Rain = 0
KEN1 232122Z 02013KT 16/10 A299 RMK A01 T01630097  RH  065%=      5-min Rain = 0
KEN1 232123Z 03011KT 16/10 A299 RMK A01 T01630098  RH  065%=      5-min Rain = 0
KEN1 232124Z 02012G18KT 17/10 A299 RMK A01 T01650097  RH  064%=      5-min Rain = 0
KEN1 232125Z 03015KT 16/10 A299 RMK A01 T01620095  RH  065%=      5-min Rain = 0
KEN1 232126Z 03012KT 16/10 A299 RMK A01 T01620097  RH  065%=      5-min Rain = 0
KEN1 232127Z 02013KT 17/10 A299 RMK A01 T01670101  RH  065%=      5-min Rain = 0
KEN1 232128Z 03012KT 17/10 A299 RMK A01 T01690100  RH  064%=      5-min Rain = 0
KEN1 232129Z 03011KT 17/10 A299 RMK A01 T01680100  RH  064%=      5-min Rain = 0
KEN1 232130Z 03012KT 17/10 A299 RMK A01 T01720104  RH  064%=      5-min Rain = 0
KEN1 232131Z 03013KT 18/10 A299 RMK A01 T01750102  RH  062%=      5-min Rain = 0
KEN1 232132Z 03011G16KT 17/10 A299 RMK A01 T01720100  RH  063%=      5-min Rain = 0
KEN1 232133Z 03012KT 17/10 A299 RMK A01 T01690100  RH  064%=      5-min Rain = 0
KEN1 232134Z 03012KT 17/10 A299 RMK A01 T01680101  RH  064%=      5-min Rain = 0
KEN1 232135Z 02014KT 17/10 A299 RMK A01 T01710102  RH  064%=      5-min Rain = 0
KEN1 232136Z 01012KT 17/10 A299 RMK A01 T01690100  RH  064%=      5-min Rain = 0
KEN1 232137Z 03012KT 17/10 A299 RMK A01 T01670101  RH  065%=      5-min Rain = 0
KEN1 232138Z 03012KT 17/10 A299 RMK A01 T01690101  RH  064%=      5-min Rain = 0
KEN1 232139Z 03011KT 17/10 A299 RMK A01 T01710099  RH  063%=      5-min Rain = 0
KEN1 232140Z 04009KT 17/10 A299 RMK A01 T01710100  RH  063%=      5-min Rain = 0
KEN1 232141Z 05011KT 17/10 A299 RMK A01 T01740102  RH  062%=      5-min Rain = 0
KEN1 232142Z 04010KT 17/10 A299 RMK A01 T01740099  RH  061%=      5-min Rain = 0
KEN1 232143Z 02013KT 17/10 A299 RMK A01 T01740100  RH  062%=      5-min Rain = 0
KEN1 232144Z 01011KT 17/10 A299 RMK A01 T01700097  RH  062%=      5-min Rain = 0
KEN1 232145Z 02010KT 17/10 A299 RMK A01 T01690102  RH  065%=      5-min Rain = 0
KEN1 232146Z 03013KT 17/10 A299 RMK A01 T01720101  RH  063%=      5-min Rain = 0
KEN1 232147Z 03011KT 17/10 A2991 RMK A01 T01710098  RH  062%=      5-min Rain = 0
KEN1 232148Z 04010KT 17/10 A2991 RMK A01 T01680098  RH  063%=      5-min Rain = 0
KEN1 232149Z 03010KT 17/10 A299 RMK A01 T01700102  RH  064%=      5-min Rain = 0
KEN1 232150Z 00013KT 17/10 A299 RMK A01 T01740104  RH  063%=      5-min Rain = 0
KEN1 232151Z 03012G18KT 17/10 A2989 RMK A01 T01740102  RH  063%=      5-min Rain = 0
KEN1 232152Z 02014KT 17/10 A2989 RMK A01 T01720102  RH  064%=      5-min Rain = 0
KEN1 232153Z 02013KT 17/10 A2989 RMK A01 T01710101  RH  063%=      5-min Rain = 0
KEN1 232154Z 00011KT 17/10 A2989 RMK A01 T01710103  RH  064%=      5-min Rain = 0
KEN1 232155Z 03014KT 17/10 A2988 RMK A01 T01710102  RH  064%=      5-min Rain = 0
KEN1 232156Z 03013KT 17/10 A2988 RMK A01 T01700100  RH  063%=      5-min Rain = 0
KEN1 232157Z 03011KT 17/10 A2988 RMK A01 T01690100  RH  064%=      5-min Rain = 0
KEN1 232158Z 03011KT 17/10 A2988 RMK A01 T01680100  RH  064%=      5-min Rain = 0
KEN1 232159Z 04014KT 17/10 A2988 RMK A01 T01670100  RH  065%=      5-min Rain = 0
KEN1 232200Z 03012KT 17/10 A2988 RMK A01 T01690100  RH  064%=      5-min Rain = 0
KEN1 232201Z 03012KT 17/10 A2988 RMK A01 T01680101  RH  065%=      5-min Rain = 0
KEN1 232202Z 03010KT 17/10 A2988 RMK A01 T01700102  RH  064%=      5-min Rain = 0
KEN1 232203Z 04011G16KT 17/11 A2988 RMK A01 T01730105  RH  064%=      5-min Rain = 0
KEN1 232204Z 03015KT 18/10 A2988 RMK A01 T01760103  RH  062%=      5-min Rain = 0
KEN1 232205Z 03012KT 17/10 A2988 RMK A01 T01740100  RH  062%=      5-min Rain = 0
KEN1 232206Z 02010KT 17/10 A2988 RMK A01 T01700099  RH  063%=      5-min Rain = 0
KEN1 232207Z 02012G17KT 17/10 A2988 RMK A01 T01690100  RH  064%=      5-min Rain = 0
KEN1 232208Z 04009KT 17/10 A2988 RMK A01 T01710103  RH  064%=      5-min Rain = 0
KEN1 232209Z 02012KT 17/10 A2989 RMK A01 T01740103  RH  063%=      5-min Rain = 0
KEN1 232210Z 03011KT 17/10 A2989 RMK A01 T01710102  RH  063%=      5-min Rain = 0
KEN1 232211Z 03008KT 17/10 A2989 RMK A01 T01690101  RH  064%=      5-min Rain = 0
KEN1 232212Z 03012KT 17/10 A2989 RMK A01 T01670101  RH  065%=      5-min Rain = 0
KEN1 232213Z 03012KT 17/10 A2989 RMK A01 T01690103  RH  065%=      5-min Rain = 0
KEN1 232214Z 03012KT 17/10 A2989 RMK A01 T01700101  RH  064%=      5-min Rain = 0
KEN1 232215Z 03013KT 17/10 A2989 RMK A01 T01710102  RH  064%=      5-min Rain = 0
KEN1 232216Z 03012KT 17/10 A2989 RMK A01 T01710101  RH  063%=      5-min Rain = 0
KEN1 232217Z 02013KT 17/10 A2988 RMK A01 T01710102  RH  064%=      5-min Rain = 0
KEN1 232218Z 02013KT 17/10 A2988 RMK A01 T01710101  RH  063%=      5-min Rain = 0
KEN1 232219Z 02011KT 17/10 A2988 RMK A01 T01710100  RH  063%=      5-min Rain = 0
KEN1 232220Z 03010KT 17/10 A2988 RMK A01 T01700102  RH  064%=      5-min Rain = 0
KEN1 232221Z 02010KT 17/10 A2988 RMK A01 T01720103  RH  063%=      5-min Rain = 0
KEN1 232222Z 02011KT 18/11 A2988 RMK A01 T01760105  RH  063%=      5-min Rain = 0
KEN1 232223Z 05011KT 18/10 A2988 RMK A01 T01770104  RH  062%=      5-min Rain = 0
KEN1 232224Z 03013G18KT 18/10 A2988 RMK A01 T01770103  RH  062%=      5-min Rain = 0
KEN1 232225Z 04015KT 18/10 A2988 RMK A01 T01760102  RH  062%=      5-min Rain = 0
KEN1 232226Z 04010KT 18/10 A2988 RMK A01 T01750102  RH  062%=      5-min Rain = 0
KEN1 232227Z 03012KT 17/10 A2988 RMK A01 T01730102  RH  063%=      5-min Rain = 0
KEN1 232228Z 04011KT 17/10 A2988 RMK A01 T01740103  RH  063%=      5-min Rain = 0
KEN1 232229Z 02012KT 18/11 A2988 RMK A01 T01770105  RH  063%=      5-min Rain = 0
KEN1 232230Z 01012KT 18/10 A2987 RMK A01 T01750102  RH  062%=      5-min Rain = 0
KEN1 232231Z 02015KT 17/10 A2987 RMK A01 T01720103  RH  064%=      5-min Rain = 0
KEN1 232232Z 03013KT 17/10 A2987 RMK A01 T01720104  RH  064%=      5-min Rain = 0
KEN1 232233Z 03012KT 17/11 A2987 RMK A01 T01700105  RH  065%=      5-min Rain = 0
KEN1 232234Z 04012KT 17/11 A2987 RMK A01 T01700105  RH  066%=      5-min Rain = 0
KEN1 232235Z 04012KT 17/11 A2987 RMK A01 T01700106  RH  066%=      5-min Rain = 0
KEN1 232236Z 05013KT 17/11 A2987 RMK A01 T01700106  RH  066%=      5-min Rain = 0
KEN1 232237Z 05012G17KT 17/11 A2987 RMK A01 T01730105  RH  064%=      5-min Rain = 0
KEN1 232238Z 03010KT 17/11 A2987 RMK A01 T01740108  RH  065%=      5-min Rain = 0
KEN1 232239Z 03011KT 18/11 A2987 RMK A01 T01760106  RH  064%=      5-min Rain = 0
KEN1 232240Z 04011KT 18/11 A2987 RMK A01 T01760106  RH  063%=      5-min Rain = 0
KEN1 232241Z 04011KT 18/11 A2987 RMK A01 T01750107  RH  064%=      5-min Rain = 0
KEN1 232242Z 04010KT 18/11 A2987 RMK A01 T01750106  RH  064%=      5-min Rain = 0
KEN1 232243Z 05010KT 17/11 A2987 RMK A01 T01740106  RH  064%=      5-min Rain = 0
KEN1 232244Z 05009KT 17/11 A2987 RMK A01 T01740108  RH  065%=      5-min Rain = 0
KEN1 232245Z 03010KT 17/11 A2987 RMK A01 T01740108  RH  065%=      5-min Rain = 0
KEN1 232246Z 02013KT 17/10 A2987 RMK A01 T01730104  RH  064%=      5-min Rain = 0
KEN1 232247Z 02012KT 17/10 A2987 RMK A01 T01700103  RH  065%=      5-min Rain = 0
KEN1 232248Z 03011KT 17/10 A2987 RMK A01 T01700104  RH  065%=      5-min Rain = 0
KEN1 232249Z 05010KT 17/11 A2987 RMK A01 T01710105  RH  065%=      5-min Rain = 0
KEN1 232250Z 05010KT 17/11 A2987 RMK A01 T01740105  RH  064%=      5-min Rain = 0
KEN1 232251Z 04009KT 17/10 A2987 RMK A01 T01730104  RH  064%=      5-min Rain = 0
KEN1 232252Z 02011KT 17/11 A2986 RMK A01 T01720105  RH  065%=      5-min Rain = 0
KEN1 232253Z 02013KT 17/10 A2986 RMK A01 T01730103  RH  063%=      5-min Rain = 0
KEN1 232254Z 02010KT 17/10 A2986 RMK A01 T01700101  RH  064%=      5-min Rain = 0
KEN1 232255Z 01011KT 17/10 A2986 RMK A01 T01690104  RH  065%=      5-min Rain = 0
KEN1 232256Z 01011KT 17/10 A2986 RMK A01 T01700103  RH  064%=      5-min Rain = 0
KEN1 232257Z 00010KT 17/11 A2986 RMK A01 T01700105  RH  065%=      5-min Rain = 0
KEN1 232258Z 36010KT 17/11 A2986 RMK A01 T01700105  RH  065%=      5-min Rain = 0
KEN1 232259Z 01012KT 17/11 A2986 RMK A01 T01700105  RH  065%=      5-min Rain = 0
KEN1 232300Z 02014KT 17/10 A2986 RMK A01 T01700103  RH  064%=      5-min Rain = 0
KEN1 232301Z 03011KT 17/10 A2986 RMK A01 T01700102  RH  064%=      5-min Rain = 0
KEN1 232302Z 02010KT 17/10 A2986 RMK A01 T01690102  RH  065%=      5-min Rain = 0
KEN1 232303Z 02009KT 17/10 A2986 RMK A01 T01690103  RH  065%=      5-min Rain = 0
KEN1 232304Z 02009KT 17/10 A2986 RMK A01 T01700104  RH  065%=      5-min Rain = 0
KEN1 232305Z 02011KT 17/11 A2986 RMK A01 T01730106  RH  065%=      5-min Rain = 0
KEN1 232306Z 03010KT 17/10 A2986 RMK A01 T01740104  RH  063%=      5-min Rain = 0
KEN1 232307Z 04007KT 17/10 A2986 RMK A01 T01730104  RH  064%=      5-min Rain = 0
KEN1 232308Z 03007KT 17/11 A2986 RMK A01 T01710105  RH  065%=      5-min Rain = 0
KEN1 232309Z 01009KT 17/11 A2986 RMK A01 T01720105  RH  065%=      5-min Rain = 0
KEN1 232310Z 01010KT 17/11 A2986 RMK A01 T01730106  RH  065%=      5-min Rain = 0
KEN1 232311Z 01010KT 17/11 A2986 RMK A01 T01730105  RH  064%=      5-min Rain = 0
KEN1 232312Z 02010KT 17/10 A2986 RMK A01 T01720104  RH  064%=      5-min Rain = 0
KEN1 232313Z 03009KT 17/10 A2986 RMK A01 T01710104  RH  064%=      5-min Rain = 0
KEN1 232314Z 05010KT 17/11 A2986 RMK A01 T01710105  RH  065%=      5-min Rain = 0
KEN1 232315Z 03010KT 17/10 A2986 RMK A01 T01720104  RH  064%=      5-min Rain = 0
KEN1 232316Z 04010KT 17/10 A2986 RMK A01 T01720104  RH  064%=      5-min Rain = 0
KEN1 232317Z 03010KT 17/10 A2986 RMK A01 T01720104  RH  064%=      5-min Rain = 0
KEN1 232318Z 03010KT 17/11 A2986 RMK A01 T01740105  RH  064%=      5-min Rain = 0
KEN1 232319Z 03010KT 17/10 A2987 RMK A01 T01730104  RH  064%=      5-min Rain = 0
KEN1 232320Z 02009KT 17/11 A2987 RMK A01 T01720105  RH  064%=      5-min Rain = 0
KEN1 232321Z 01009KT 17/10 A2987 RMK A01 T01730104  RH  064%=      5-min Rain = 0
KEN1 232322Z 02008KT 17/10 A2987 RMK A01 T01710104  RH  064%=      5-min Rain = 0
KEN1 232323Z 03008KT 17/11 A2987 RMK A01 T01720105  RH  065%=      5-min Rain = 0
KEN1 232324Z 04009KT 17/11 A2987 RMK A01 T01740105  RH  064%=      5-min Rain = 0
KEN1 232325Z 04013KT 18/11 A2987 RMK A01 T01750105  RH  063%=      5-min Rain = 0
KEN1 232326Z 04010KT 18/10 A2987 RMK A01 T01760104  RH  063%=      5-min Rain = 0
KEN1 232327Z 04009KT 18/10 A2987 RMK A01 T01760104  RH  063%=      5-min Rain = 0
KEN1 232328Z 04007KT 17/10 A2987 RMK A01 T01740103  RH  063%=      5-min Rain = 0
KEN1 232329Z 04011KT 17/10 A2987 RMK A01 T01740104  RH  063%=      5-min Rain = 0
KEN1 232330Z 04010KT 17/10 A2987 RMK A01 T01740103  RH  063%=      5-min Rain = 0
KEN1 232331Z 04010KT 17/10 A2987 RMK A01 T01730103  RH  064%=      5-min Rain = 0
KEN1 232332Z 05010KT 17/10 A2987 RMK A01 T01720104  RH  064%=      5-min Rain = 0
KEN1 232333Z 06010KT 17/11 A2987 RMK A01 T01720106  RH  065%=      5-min Rain = 0
KEN1 232334Z 06008KT 18/11 A2987 RMK A01 T01750107  RH  064%=      5-min Rain = 0
KEN1 232335Z 04011KT 18/11 A2987 RMK A01 T01760106  RH  063%=      5-min Rain = 0
KEN1 232336Z 04012KT 18/11 A2987 RMK A01 T01750105  RH  063%=      5-min Rain = 0
KEN1 232337Z 05010KT 17/11 A2987 RMK A01 T01730105  RH  064%=      5-min Rain = 0
KEN1 232338Z 04008KT 17/11 A2987 RMK A01 T01730105  RH  065%=      5-min Rain = 0
KEN1 232339Z 06010KT 17/11 A2987 RMK A01 T01730106  RH  065%=      5-min Rain = 0
KEN1 232340Z 06009KT 18/11 A2987 RMK A01 T01760108  RH  064%=      5-min Rain = 0
KEN1 232341Z 05010KT 18/11 A2988 RMK A01 T01760107  RH  064%=      5-min Rain = 0
KEN1 232342Z 06008KT 18/11 A2987 RMK A01 T01750106  RH  064%=      5-min Rain = 0
KEN1 232343Z 04011KT 18/11 A2987 RMK A01 T01750107  RH  064%=      5-min Rain = 0
KEN1 232344Z 04009KT 17/11 A2987 RMK A01 T01740106  RH  064%=      5-min Rain = 0
KEN1 232345Z 04011KT 17/11 A2987 RMK A01 T01740106  RH  064%=      5-min Rain = 0
KEN1 232346Z 04009KT 17/11 A2987 RMK A01 T01730106  RH  065%=      5-min Rain = 0
KEN1 232347Z 04010KT 17/11 A2987 RMK A01 T01730106  RH  065%=      5-min Rain = 0
KEN1 232348Z 05009KT 17/11 A2987 RMK A01 T01730107  RH  065%=      5-min Rain = 0
KEN1 232349Z 07010KT 17/11 A2987 RMK A01 T01730107  RH  065%=      5-min Rain = 0
KEN1 232350Z 05009KT 17/11 A2987 RMK A01 T01730107  RH  065%=      5-min Rain = 0
KEN1 232351Z 05009KT 17/11 A2988 RMK A01 T01740108  RH  065%=      5-min Rain = 0
KEN1 232352Z 06008KT 18/11 A2988 RMK A01 T01750108  RH  065%=      5-min Rain = 0
KEN1 232353Z 07009KT 18/11 A2988 RMK A01 T01750107  RH  064%=      5-min Rain = 0
KEN1 232354Z 06010KT 17/11 A2988 RMK A01 T01740108  RH  065%=      5-min Rain = 0
KEN1 232355Z 06011KT 17/11 A2988 RMK A01 T01740107  RH  065%=      5-min Rain = 0
KEN1 232356Z 06010KT 17/11 A2988 RMK A01 T01730107  RH  065%=      5-min Rain = 0
KEN1 232357Z 06009KT 17/11 A2987 RMK A01 T01730108  RH  066%=      5-min Rain = 0
KEN1 232358Z 07010KT 17/11 A2988 RMK A01 T01730108  RH  065%=      5-min Rain = 0
KEN1 232359Z 06010KT 17/11 A2988 RMK A01 T01740108  RH  065%=      5-min Rain = 0
KEN1 240000Z 05008KT 17/11 A2988 RMK A01 T01740108  RH  065%=      5-min Rain = 0
KEN1 240001Z 05009KT 17/11 A2987 RMK A01 T01730108  RH  065%=      5-min Rain = 0
KEN1 240002Z 04010KT 17/11 A2987 RMK A01 T01730108  RH  066%=      5-min Rain = 0
KEN1 240003Z 06010KT 17/11 A2987 RMK A01 T01740108  RH  065%=      5-min Rain = 0
KEN1 240004Z 06008KT 17/11 A2987 RMK A01 T01730107  RH  065%=      5-min Rain = 0
KEN1 240005Z 05010KT 17/11 A2987 RMK A01 T01730108  RH  065%=      5-min Rain = 0
KEN1 240006Z 06012KT 17/11 A2987 RMK A01 T01730108  RH  066%=      5-min Rain = 0
KEN1 240007Z 07010KT 17/11 A2987 RMK A01 T01730107  RH  065%=      5-min Rain = 0
KEN1 240008Z 08010KT 17/11 A2987 RMK A01 T01730107  RH  065%=      5-min Rain = 0
KEN1 240009Z 08008KT 17/11 A2988 RMK A01 T01730109  RH  066%=      5-min Rain = 0
KEN1 240010Z 07011KT 17/11 A2988 RMK A01 T01740108  RH  065%=      5-min Rain = 0
KEN1 240011Z 07011KT 17/11 A2988 RMK A01 T01740108  RH  065%=      5-min Rain = 0
KEN1 240012Z 08010KT 17/11 A2988 RMK A01 T01740109  RH  065%=      5-min Rain = 0
KEN1 240013Z 08010KT 18/11 A2988 RMK A01 T01750109  RH  065%=      5-min Rain = 0
KEN1 240014Z 07010KT 18/11 A2988 RMK A01 T01750109  RH  065%=      5-min Rain = 0
KEN1 240015Z 06009KT 18/11 A2988 RMK A01 T01760110  RH  065%=      5-min Rain = 0
KEN1 240016Z 05007KT 18/11 A2988 RMK A01 T01750109  RH  065%=      5-min Rain = 0
KEN1 240017Z 06008KT 18/11 A2988 RMK A01 T01750110  RH  066%=      5-min Rain = 0
KEN1 240018Z 05010KT 18/11 A2988 RMK A01 T01760110  RH  065%=      5-min Rain = 0
KEN1 240019Z 04009KT 18/11 A2988 RMK A01 T01760110  RH  065%=      5-min Rain = 0
KEN1 240020Z 04008KT 17/11 A2988 RMK A01 T01740110  RH  066%=      5-min Rain = 0
KEN1 240021Z 06006KT 17/11 A2988 RMK A01 T01740111  RH  066%=      5-min Rain = 0
KEN1 240022Z 04009KT 18/11 A2988 RMK A01 T01760112  RH  066%=      5-min Rain = 0
KEN1 240023Z 04009KT 18/11 A2988 RMK A01 T01760111  RH  065%=      5-min Rain = 0
KEN1 240024Z 04009KT 18/11 A2987 RMK A01 T01760110  RH  065%=      5-min Rain = 0
KEN1 240025Z 04010KT 18/11 A2987 RMK A01 T01750110  RH  066%=      5-min Rain = 0
KEN1 240026Z 04009KT 18/11 A2987 RMK A01 T01750111  RH  066%=      5-min Rain = 0
KEN1 240027Z 05010KT 18/11 A2987 RMK A01 T01750111  RH  066%=      5-min Rain = 0
KEN1 240028Z 03008KT 18/11 A2988 RMK A01 T01760111  RH  066%=      5-min Rain = 0
KEN1 240029Z 03006KT 18/11 A2987 RMK A01 T01750110  RH  066%=      5-min Rain = 0
KEN1 240030Z 06007KT 18/11 A2987 RMK A01 T01750111  RH  066%=      5-min Rain = 0
KEN1 240031Z 05011KT 18/11 A2987 RMK A01 T01760111  RH  066%=      5-min Rain = 0
KEN1 240032Z 05008KT 18/11 A2987 RMK A01 T01750110  RH  066%=      5-min Rain = 0
KEN1 240033Z 04007KT 18/11 A2987 RMK A01 T01750110  RH  066%=      5-min Rain = 0
KEN1 240034Z 03007KT 17/11 A2987 RMK A01 T01740110  RH  066%=      5-min Rain = 0
KEN1 240035Z 01008KT 18/11 A2987 RMK A01 T01750111  RH  066%=      5-min Rain = 0
KEN1 240036Z 02010KT 18/11 A2987 RMK A01 T01750111  RH  066%=      5-min Rain = 0
KEN1 240037Z 03010KT 17/11 A2987 RMK A01 T01740110  RH  066%=      5-min Rain = 0
KEN1 240038Z 03010KT 17/11 A2987 RMK A01 T01720109  RH  066%=      5-min Rain = 0
KEN1 240039Z 03008KT 17/11 A2987 RMK A01 T01710109  RH  067%=      5-min Rain = 0
KEN1 240040Z 04009KT 17/11 A2987 RMK A01 T01710110  RH  067%=      5-min Rain = 0
KEN1 240041Z 02009KT 17/11 A2987 RMK A01 T01720110  RH  067%=      5-min Rain = 0
KEN1 240042Z 01008KT 17/11 A2987 RMK A01 T01720110  RH  067%=      5-min Rain = 0
KEN1 240043Z 01009KT 17/11 A2988 RMK A01 T01720111  RH  067%=      5-min Rain = 0
KEN1 240044Z 02009KT 17/11 A2988 RMK A01 T01720110  RH  067%=      5-min Rain = 0
KEN1 240045Z 03011KT 17/11 A2987 RMK A01 T01720110  RH  067%=      5-min Rain = 0
KEN1 240046Z 02010KT 17/11 A2988 RMK A01 T01720110  RH  067%=      5-min Rain = 0
KEN1 240047Z 02010KT 17/11 A2988 RMK A01 T01720110  RH  067%=      5-min Rain = 0
KEN1 240048Z 02010KT 17/11 A2988 RMK A01 T01710110  RH  067%=      5-min Rain = 0
KEN1 240049Z 02010KT 17/11 A2988 RMK A01 T01710110  RH  067%=      5-min Rain = 0
KEN1 240050Z 02012KT 17/11 A2988 RMK A01 T01700110  RH  068%=      5-min Rain = 0
KEN1 240051Z 02012KT 17/11 A2988 RMK A01 T01700110  RH  068%=      5-min Rain = 0
KEN1 240052Z 02012KT 17/11 A2988 RMK A01 T01690110  RH  068%=      5-min Rain = 0
KEN1 240053Z 02009KT 17/11 A2988 RMK A01 T01680110  RH  068%=      5-min Rain = 0
KEN1 240054Z 01008KT 17/11 A2988 RMK A01 T01680110  RH  069%=      5-min Rain = 0
KEN1 240055Z 01010KT 17/11 A2988 RMK A01 T01680111  RH  069%=      5-min Rain = 0
KEN1 240056Z 02010KT 17/11 A2988 RMK A01 T01680110  RH  069%=      5-min Rain = 0
KEN1 240057Z 02010KT 17/11 A2988 RMK A01 T01680110  RH  069%=      5-min Rain = 0
KEN1 240058Z 02011KT 17/11 A2988 RMK A01 T01680110  RH  069%=      5-min Rain = 0
KEN1 240059Z 02010KT 17/11 A2988 RMK A01 T01670110  RH  069%=      5-min Rain = 0
KEN1 240100Z 02010KT 17/11 A2988 RMK A01 T01660110  RH  069%=      5-min Rain = 0
KEN1 240101Z 01010KT 17/11 A2988 RMK A01 T01660110  RH  069%=      5-min Rain = 0
KEN1 240102Z 01011KT 17/11 A2988 RMK A01 T01660110  RH  070%=      5-min Rain = 0
KEN1 240103Z 01011KT 17/11 A2988 RMK A01 T01650110  RH  070%=      5-min Rain = 0
KEN1 240104Z 02010KT 16/11 A2988 RMK A01 T01640109  RH  070%=      5-min Rain = 0
KEN1 240105Z 02010KT 16/11 A2988 RMK A01 T01640110  RH  070%=      5-min Rain = 0
KEN1 240106Z 01009KT 16/11 A2988 RMK A01 T01640110  RH  070%=      5-min Rain = 0
KEN1 240107Z 01009KT 16/11 A2988 RMK A01 T01640110  RH  070%=      5-min Rain = 0
KEN1 240108Z 02010KT 16/11 A2989 RMK A01 T01630109  RH  070%=      5-min Rain = 0
KEN1 240109Z 03008KT 16/11 A2989 RMK A01 T01630109  RH  071%=      5-min Rain = 0
KEN1 240110Z 02011KT 16/11 A2989 RMK A01 T01620109  RH  071%=      5-min Rain = 0
KEN1 240111Z 02011KT 16/11 A2989 RMK A01 T01620109  RH  071%=      5-min Rain = 0
KEN1 240112Z 01009KT 16/11 A2989 RMK A01 T01620109  RH  071%=      5-min Rain = 0
KEN1 240113Z 01009KT 16/11 A2989 RMK A01 T01610110  RH  071%=      5-min Rain = 0
KEN1 240114Z 00010KT 16/11 A2989 RMK A01 T01610110  RH  071%=      5-min Rain = 0
KEN1 240115Z 35008KT 16/11 A299 RMK A01 T01610111  RH  072%=      5-min Rain = 0
KEN1 240116Z 35009KT 16/11 A2991 RMK A01 T01610111  RH  072%=      5-min Rain = 0
KEN1 240117Z 35008KT 16/11 A2991 RMK A01 T01610110  RH  072%=      5-min Rain = 0
KEN1 240118Z 35009KT 16/11 A2991 RMK A01 T01610110  RH  072%=      5-min Rain = 0
KEN1 240119Z 36009KT 16/11 A2991 RMK A01 T01610110  RH  072%=      5-min Rain = 0
KEN1 240120Z 00010KT 16/11 A2991 RMK A01 T01610111  RH  072%=      5-min Rain = 0
KEN1 240121Z 01010KT 16/11 A2991 RMK A01 T01610110  RH  072%=      5-min Rain = 0
KEN1 240122Z 01009KT 16/11 A299 RMK A01 T01600110  RH  072%=      5-min Rain = 0
KEN1 240123Z 01010KT 16/11 A299 RMK A01 T01600109  RH  072%=      5-min Rain = 0
KEN1 240124Z 03008KT 16/11 A299 RMK A01 T01590110  RH  072%=      5-min Rain = 0
KEN1 240125Z 04007KT 16/11 A299 RMK A01 T01580109  RH  073%=      5-min Rain = 0
KEN1 240126Z 05007KT 16/11 A299 RMK A01 T01580109  RH  073%=      5-min Rain = 0
KEN1 240127Z 06008KT 16/11 A299 RMK A01 T01570110  RH  073%=      5-min Rain = 0
KEN1 240128Z 06007KT 16/11 A299 RMK A01 T01560109  RH  074%=      5-min Rain = 0
KEN1 240129Z 05006KT 16/11 A299 RMK A01 T01560110  RH  074%=      5-min Rain = 0
KEN1 240130Z 04006KT 16/11 A2991 RMK A01 T01560110  RH  074%=      5-min Rain = 0
KEN1 240131Z 03006KT 16/11 A2991 RMK A01 T01560110  RH  074%=      5-min Rain = 0
KEN1 240132Z 02007KT 16/11 A2991 RMK A01 T01550110  RH  074%=      5-min Rain = 0
KEN1 240133Z 02007KT 16/11 A2991 RMK A01 T01550110  RH  074%=      5-min Rain = 0
KEN1 240134Z 03008KT 16/11 A2991 RMK A01 T01550110  RH  075%=      5-min Rain = 0
KEN1 240135Z 03008KT 15/11 A2991 RMK A01 T01540110  RH  075%=      5-min Rain = 0
KEN1 240136Z 05007KT 15/11 A2991 RMK A01 T01530110  RH  075%=      5-min Rain = 0
KEN1 240137Z 05008KT 15/11 A2991 RMK A01 T01520110  RH  076%=      5-min Rain = 0
KEN1 240138Z 05008KT 15/11 A2991 RMK A01 T01520110  RH  076%=      5-min Rain = 0
KEN1 240139Z 05009KT 15/11 A2991 RMK A01 T01520111  RH  076%=      5-min Rain = 0
KEN1 240140Z 05010KT 15/11 A2991 RMK A01 T01520110  RH  076%=      5-min Rain = 0
KEN1 240141Z 05010KT 15/11 A299 RMK A01 T01510110  RH  076%=      5-min Rain = 0
KEN1 240142Z 05009KT 15/11 A299 RMK A01 T01510110  RH  076%=      5-min Rain = 0
KEN1 240143Z 05008KT 15/11 A299 RMK A01 T01510110  RH  077%=      5-min Rain = 0
KEN1 240144Z 06008KT 15/11 A299 RMK A01 T01500110  RH  077%=      5-min Rain = 0
KEN1 240145Z 06008KT 15/11 A2991 RMK A01 T01490110  RH  077%=      5-min Rain = 0
KEN1 240146Z 06008KT 15/11 A299 RMK A01 T01490110  RH  078%=      5-min Rain = 0
KEN1 240147Z 06009KT 15/11 A299 RMK A01 T01480110  RH  078%=      5-min Rain = 0
KEN1 240148Z 06007KT 15/11 A2991 RMK A01 T01470110  RH  078%=      5-min Rain = 0
KEN1 240149Z 05006KT 15/11 A2991 RMK A01 T01460110  RH  079%=      5-min Rain = 0
KEN1 240150Z 05007KT 15/11 A2991 RMK A01 T01460109  RH  079%=      5-min Rain = 0
KEN1 240151Z 04007KT 15/11 A2992 RMK A01 T01450110  RH  079%=      5-min Rain = 0
KEN1 240152Z 03007KT 15/11 A2992 RMK A01 T01450110  RH  079%=      5-min Rain = 0
KEN1 240153Z 02007KT 15/11 A2992 RMK A01 T01450110  RH  079%=      5-min Rain = 0
KEN1 240154Z 03008KT 15/11 A2992 RMK A01 T01450110  RH  080%=      5-min Rain = 0
KEN1 240155Z 02009KT 15/11 A2992 RMK A01 T01450110  RH  080%=      5-min Rain = 0
KEN1 240156Z 02009KT 14/11 A2992 RMK A01 T01440110  RH  080%=      5-min Rain = 0
KEN1 240157Z 03008KT 14/11 A2992 RMK A01 T01440110  RH  080%=      5-min Rain = 0
KEN1 240158Z 02009KT 14/11 A2992 RMK A01 T01430110  RH  080%=      5-min Rain = 0
KEN1 240159Z 02007KT 14/11 A2992 RMK A01 T01430110  RH  080%=      5-min Rain = 0
KEN1 240200Z 01006KT 14/11 A2992 RMK A01 T01430110  RH  080%=      5-min Rain = 0
KEN1 240201Z 01006KT 14/11 A2992 RMK A01 T01430110  RH  081%=      5-min Rain = 0
KEN1 240202Z 02006KT 14/11 A2992 RMK A01 T01430110  RH  081%=      5-min Rain = 0
KEN1 240203Z 02005KT 14/11 A2993 RMK A01 T01420109  RH  081%=      5-min Rain = 0
KEN1 240204Z 02005KT 14/11 A2993 RMK A01 T01420109  RH  081%=      5-min Rain = 0
KEN1 240205Z 02006KT 14/11 A2993 RMK A01 T01410109  RH  081%=      5-min Rain = 0
KEN1 240206Z 02007KT 14/11 A2993 RMK A01 T01410109  RH  081%=      5-min Rain = 0
KEN1 240207Z 03007KT 14/11 A2993 RMK A01 T01390108  RH  081%=      5-min Rain = 0
KEN1 240208Z 03008KT 14/11 A2993 RMK A01 T01370107  RH  082%=      5-min Rain = 0
KEN1 240209Z 02008KT 14/11 A2993 RMK A01 T01360107  RH  083%=      5-min Rain = 0
KEN1 240210Z 01008KT 14/11 A2993 RMK A01 T01360108  RH  083%=      5-min Rain = 0
KEN1 240211Z 36007KT 14/11 A2993 RMK A01 T01350108  RH  084%=      5-min Rain = 0
KEN1 240212Z 00007KT 14/11 A2993 RMK A01 T01360109  RH  084%=      5-min Rain = 0
KEN1 240213Z 01008KT 14/11 A2993 RMK A01 T01360109  RH  084%=      5-min Rain = 0
KEN1 240214Z 02009KT 14/11 A2992 RMK A01 T01360108  RH  083%=      5-min Rain = 0
KEN1 240215Z 01009KT 14/11 A2992 RMK A01 T01360108  RH  083%=      5-min Rain = 0
KEN1 240216Z 01009KT 14/11 A2992 RMK A01 T01350108  RH  083%=      5-min Rain = 0
KEN1 240217Z 01009KT 14/11 A2992 RMK A01 T01350108  RH  084%=      5-min Rain = 0
KEN1 240218Z 01009KT 13/11 A2992 RMK A01 T01340107  RH  084%=      5-min Rain = 0
KEN1 240219Z 02009KT 13/11 A2992 RMK A01 T01340108  RH  084%=      5-min Rain = 0
KEN1 240220Z 02008KT 13/11 A2992 RMK A01 T01340108  RH  084%=      5-min Rain = 0
KEN1 240221Z 03008KT 13/11 A2992 RMK A01 T01340108  RH  084%=      5-min Rain = 0
KEN1 240222Z 03008KT 13/11 A2992 RMK A01 T01330108  RH  084%=      5-min Rain = 0
KEN1 240223Z 03008KT 13/11 A2992 RMK A01 T01330108  RH  085%=      5-min Rain = 0
KEN1 240224Z 02007KT 13/11 A2992 RMK A01 T01320107  RH  085%=      5-min Rain = 0
KEN1 240225Z 02007KT 13/11 A2992 RMK A01 T01320107  RH  085%=      5-min Rain = 0
KEN1 240226Z 02007KT 13/11 A2992 RMK A01 T01320107  RH  085%=      5-min Rain = 0
KEN1 240227Z 03007KT 13/11 A2992 RMK A01 T01310107  RH  085%=      5-min Rain = 0
KEN1 240228Z 03008KT 13/11 A2992 RMK A01 T01300106  RH  085%=      5-min Rain = 0
KEN1 240229Z 03008KT 13/11 A2992 RMK A01 T01300106  RH  085%=      5-min Rain = 0
KEN1 240230Z 03007KT 13/11 A2992 RMK A01 T01290106  RH  086%=      5-min Rain = 0
KEN1 240231Z 03007KT 13/11 A2992 RMK A01 T01290106  RH  086%=      5-min Rain = 0
KEN1 240232Z 03007KT 13/11 A2992 RMK A01 T01280106  RH  086%=      5-min Rain = 0
KEN1 240233Z 03008KT 13/11 A2992 RMK A01 T01270106  RH  087%=      5-min Rain = 0
KEN1 240234Z 03008KT 13/11 A2992 RMK A01 T01280106  RH  087%=      5-min Rain = 0
KEN1 240235Z 02008KT 13/11 A2992 RMK A01 T01270105  RH  087%=      5-min Rain = 0
KEN1 240236Z 02009KT 13/11 A2992 RMK A01 T01260105  RH  087%=      5-min Rain = 0
KEN1 240237Z 03009KT 13/11 A2992 RMK A01 T01250105  RH  087%=      5-min Rain = 0
KEN1 240238Z 03008KT 13/11 A2992 RMK A01 T01250105  RH  088%=      5-min Rain = 0
KEN1 240239Z 01007KT 12/11 A2992 RMK A01 T01240105  RH  088%=      5-min Rain = 0
KEN1 240240Z 36009KT 12/11 A2993 RMK A01 T01240106  RH  088%=      5-min Rain = 0
KEN1 240241Z 01009KT 13/11 A2993 RMK A01 T01250107  RH  089%=      5-min Rain = 0
KEN1 240242Z 04010KT 13/11 A2993 RMK A01 T01260107  RH  088%=      5-min Rain = 0
KEN1 240243Z 06011KT 13/11 A2992 RMK A01 T01260106  RH  088%=      5-min Rain = 0
KEN1 240244Z 07013KT 13/11 A2992 RMK A01 T01260106  RH  088%=      5-min Rain = 0
KEN1 240245Z 07014KT 13/11 A2992 RMK A01 T01250106  RH  088%=      5-min Rain = 0
KEN1 240246Z 07013KT 13/11 A2992 RMK A01 T01250106  RH  088%=      5-min Rain = 0
KEN1 240247Z 06013KT 13/11 A2992 RMK A01 T01250106  RH  088%=      5-min Rain = 0
KEN1 240248Z 06011KT 13/11 A2992 RMK A01 T01250105  RH  088%=      5-min Rain = 0
KEN1 240249Z 05008KT 13/11 A2993 RMK A01 T01250105  RH  088%=      5-min Rain = 0
KEN1 240250Z 01005KT 13/11 A2993 RMK A01 T01250106  RH  088%=      5-min Rain = 0
KEN1 240251Z 33003KT 13/11 A2994 RMK A01 T01250106  RH  088%=      5-min Rain = 0
KEN1 240252Z 30002KT 13/11 A2994 RMK A01 T01250106  RH  088%=      5-min Rain = 0
KEN1 240253Z 07002KT 13/11 A2993 RMK A01 T01250106  RH  088%=      5-min Rain = 0
KEN1 240254Z 10004KT 13/11 A2993 RMK A01 T01250105  RH  088%=      5-min Rain = 0
KEN1 240255Z 08006KT 13/11 A2993 RMK A01 T01250105  RH  088%=      5-min Rain = 0
KEN1 240256Z 07007KT 12/10 A2993 RMK A01 T01240104  RH  088%=      5-min Rain = 0
KEN1 240257Z 07008KT 12/10 A2993 RMK A01 T01230104  RH  088%=      5-min Rain = 0
KEN1 240258Z 06009KT 12/10 A2993 RMK A01 T01220103  RH  088%=      5-min Rain = 0
KEN1 240259Z 06010KT 12/10 A2993 RMK A01 T01210103  RH  089%=      5-min Rain = 0
KEN1 240300Z 06010KT 12/10 A2993 RMK A01 T01190102  RH  089%=      5-min Rain = 0
KEN1 240301Z 07012KT 12/10 A2993 RMK A01 T01190103  RH  090%=      5-min Rain = 0
KEN1 240302Z 06011KT 12/10 A2993 RMK A01 T01190103  RH  090%=      5-min Rain = 0
KEN1 240303Z 07009KT 12/10 A2994 RMK A01 T01200104  RH  090%=      5-min Rain = 0
KEN1 240304Z 08009KT 12/10 A2994 RMK A01 T01200103  RH  090%=      5-min Rain = 0
KEN1 240305Z 07009KT 12/10 A2994 RMK A01 T01190103  RH  090%=      5-min Rain = 0
KEN1 240306Z 07009KT 12/10 A2994 RMK A01 T01190103  RH  090%=      5-min Rain = 0
KEN1 240307Z 06008KT 12/10 A2994 RMK A01 T01190103  RH  090%=      5-min Rain = 0
KEN1 240308Z 05006KT 12/10 A2994 RMK A01 T01190103  RH  090%=      5-min Rain = 0
KEN1 240309Z 04005KT 12/10 A2995 RMK A01 T01190103  RH  090%=      5-min Rain = 0
KEN1 240310Z 03006KT 12/10 A2995 RMK A01 T01190103  RH  090%=      5-min Rain = 0
KEN1 240311Z 03007KT 12/10 A2995 RMK A01 T01180102  RH  090%=      5-min Rain = 0
KEN1 240312Z 03006KT 12/10 A2996 RMK A01 T01180103  RH  090%=      5-min Rain = 0
KEN1 240313Z 03006KT 12/10 A2996 RMK A01 T01170102  RH  090%=      5-min Rain = 0
KEN1 240314Z 04005KT 12/10 A2996 RMK A01 T01170102  RH  090%=      5-min Rain = 0
KEN1 240315Z 05004KT 12/10 A2997 RMK A01 T01160102  RH  091%=      5-min Rain = 0
KEN1 240316Z 04006KT 12/10 A2997 RMK A01 T01160102  RH  091%=      5-min Rain = 0
KEN1 240317Z 04007KT 12/10 A2997 RMK A01 T01160102  RH  091%=      5-min Rain = 0
KEN1 240318Z 04007KT 12/10 A2997 RMK A01 T01160101  RH  091%=      5-min Rain = 0
KEN1 240319Z 03007KT 12/10 A2997 RMK A01 T01150101  RH  091%=      5-min Rain = 0
KEN1 240320Z 03007KT 12/10 A2997 RMK A01 T01150101  RH  091%=      5-min Rain = 0
KEN1 240321Z 03008KT 11/10 A2997 RMK A01 T01140100  RH  091%=      5-min Rain = 0
KEN1 240322Z 03008KT 11/10 A2997 RMK A01 T01130100  RH  092%=      5-min Rain = 0
KEN1 240323Z 03009KT 11/10 A2997 RMK A01 T01130100  RH  092%=      5-min Rain = 0
KEN1 240324Z 03009KT 11/10 A2997 RMK A01 T01130100  RH  092%=      5-min Rain = 0
KEN1 240325Z 03009KT 11/10 A2997 RMK A01 T01130101  RH  092%=      5-min Rain = 0
KEN1 240326Z 03010KT 11/10 A2996 RMK A01 T01130101  RH  092%=      5-min Rain = 0
KEN1 240327Z 03009KT 11/10 A2996 RMK A01 T01130100  RH  092%=      5-min Rain = 0
KEN1 240328Z 03009KT 11/10 A2996 RMK A01 T01120100  RH  092%=      5-min Rain = 0
KEN1 240329Z 03010KT 11/10 A2996 RMK A01 T01120100  RH  092%=      5-min Rain = 0
KEN1 240330Z 03010KT 11/10 A2996 RMK A01 T01120100  RH  093%=      5-min Rain = 0
KEN1 240331Z 03009KT 11/10 A2996 RMK A01 T01120100  RH  093%=      5-min Rain = 0
KEN1 240332Z 03009KT 11/10 A2996 RMK A01 T01120101  RH  093%=      5-min Rain = 0
KEN1 240333Z 03008KT 11/10 A2996 RMK A01 T01120100  RH  093%=      5-min Rain = 0
KEN1 240334Z 03008KT 11/10 A2996 RMK A01 T01110100  RH  093%=      5-min Rain = 0
KEN1 240335Z 03008KT 11/10 A2996 RMK A01 T01110100  RH  093%=      5-min Rain = 0
KEN1 240336Z 03008KT 11/10 A2996 RMK A01 T01100099  RH  093%=      5-min Rain = 0
KEN1 240337Z 02008KT 11/10 A2996 RMK A01 T01100099  RH  093%=      5-min Rain = 0
KEN1 240338Z 02009KT 11/10 A2996 RMK A01 T01100099  RH  093%=      5-min Rain = 0
KEN1 240339Z 03009KT 11/10 A2996 RMK A01 T01100099  RH  093%=      5-min Rain = 0
KEN1 240340Z 04008KT 11/10 A2996 RMK A01 T01090099  RH  093%=      5-min Rain = 0
KEN1 240341Z 04008KT 11/10 A2996 RMK A01 T01090098  RH  093%=      5-min Rain = 0
KEN1 240342Z 05009KT 11/10 A2996 RMK A01 T01090098  RH  093%=      5-min Rain = 0
KEN1 240343Z 05009KT 11/10 A2995 RMK A01 T01090099  RH  093%=      5-min Rain = 0
KEN1 240344Z 05008KT 11/10 A2995 RMK A01 T01090099  RH  094%=      5-min Rain = 0
KEN1 240345Z 05008KT 11/10 A2995 RMK A01 T01090099  RH  094%=      5-min Rain = 0
KEN1 240346Z 05008KT 11/10 A2995 RMK A01 T01090099  RH  094%=      5-min Rain = 0
KEN1 240347Z 05007KT 11/10 A2996 RMK A01 T01090099  RH  094%=      5-min Rain = 0
KEN1 240348Z 04004KT 11/10 A2996 RMK A01 T01090099  RH  094%=      5-min Rain = 0
KEN1 240349Z 31004KT 11/10 A2997 RMK A01 T01090099  RH  094%=      5-min Rain = 0
KEN1 240350Z 28009KT 11/10 A2997 RMK A01 T01090100  RH  094%=      5-min Rain = 0
KEN1 240351Z 29010KT 11/10 A2997 RMK A01 T01090100  RH  094%=      5-min Rain = 0
KEN1 240352Z 31006KT 11/10 A2997 RMK A01 T01090100  RH  094%=      5-min Rain = 0
KEN1 240353Z 03005KT 11/10 A2997 RMK A01 T01090100  RH  094%=      5-min Rain = 0
KEN1 240354Z 04009KT 11/10 A2996 RMK A01 T01100100  RH  094%=      5-min Rain = 0
KEN1 240355Z 05009KT 11/10 A2996 RMK A01 T01100100  RH  094%=      5-min Rain = 0
KEN1 240356Z 06010KT 11/10 A2996 RMK A01 T01100100  RH  094%=      5-min Rain = 0
KEN1 240357Z 07010KT 11/10 A2996 RMK A01 T01100100  RH  094%=      5-min Rain = 0
KEN1 240358Z 06010KT 11/10 A2996 RMK A01 T01100100  RH  093%=      5-min Rain = 0
KEN1 240359Z 06008KT 11/10 A2996 RMK A01 T01090099  RH  094%=      5-min Rain = 0
KEN1 240400Z 05007KT 11/10 A2997 RMK A01 T01080098  RH  094%=      5-min Rain = 0
KEN1 240401Z 02007KT 11/10 A2997 RMK A01 T01080099  RH  094%=      5-min Rain = 0
KEN1 240402Z 36008KT 11/10 A2997 RMK A01 T01080099  RH  094%=      5-min Rain = 0
KEN1 240403Z 34007KT 11/10 A2998 RMK A01 T01080099  RH  094%=      5-min Rain = 0
KEN1 240404Z 34007KT 11/10 A2998 RMK A01 T01080100  RH  094%=      5-min Rain = 0
KEN1 240405Z 35008KT 11/10 A2998 RMK A01 T01090100  RH  095%=      5-min Rain = 0
KEN1 240406Z 02007KT 11/10 A2997 RMK A01 T01090101  RH  095%=      5-min Rain = 0
KEN1 240407Z 04007KT 11/10 A2997 RMK A01 T01100101  RH  095%=      5-min Rain = 0
KEN1 240408Z 04005KT 11/10 A2997 RMK A01 T01100100  RH  094%=      5-min Rain = 0
KEN1 240409Z 02003KT 11/10 A2998 RMK A01 T01090099  RH  094%=      5-min Rain = 0
KEN1 240410Z 02005KT 11/10 A2997 RMK A01 T01090099  RH  094%=      5-min Rain = 0
KEN1 240411Z 03007KT 11/10 A2997 RMK A01 T01080098  RH  094%=      5-min Rain = 0
KEN1 240412Z 03007KT 11/10 A2997 RMK A01 T01070097  RH  094%=      5-min Rain = 0
KEN1 240413Z 04007KT 11/10 A2998 RMK A01 T01060097  RH  094%=      5-min Rain = 0
KEN1 240414Z 05007KT 11/10 A2998 RMK A01 T01050097  RH  094%=      5-min Rain = 0
KEN1 240415Z 05008KT 10/10 A2998 RMK A01 T01040095  RH  094%=      5-min Rain = 0
KEN1 240416Z 05008KT 10/09 A2998 RMK A01 T01030094  RH  094%=      5-min Rain = 0
KEN1 240417Z 05007KT 10/09 A2998 RMK A01 T01020094  RH  095%=      5-min Rain = 0
KEN1 240418Z 04006KT 10/10 A2998 RMK A01 T01030095  RH  095%=      5-min Rain = 0
KEN1 240419Z 04007KT 10/10 A2998 RMK A01 T01030096  RH  096%=      5-min Rain = 0
KEN1 240420Z 05008KT 10/10 A2998 RMK A01 T01040097  RH  096%=      5-min Rain = 0
KEN1 240421Z 05008KT 10/10 A2998 RMK A01 T01040098  RH  096%=      5-min Rain = 0
KEN1 240422Z 06008KT 11/10 A2998 RMK A01 T01050098  RH  096%=      5-min Rain = 0
KEN1 240423Z 06006KT 11/10 A2998 RMK A01 T01050098  RH  096%=      5-min Rain = 0
KEN1 240424Z 29002KT 11/10 A2999 RMK A01 T01050098  RH  096%=      5-min Rain = 0
KEN1 240425Z 28004KT 11/10 A2999 RMK A01 T01050098  RH  096%=      5-min Rain = 0
KEN1 240426Z 30004KT 11/10 A2999 RMK A01 T01050099  RH  096%=      5-min Rain = 0
KEN1 240427Z 00002KT 11/10 A2999 RMK A01 T01050098  RH  096%=      5-min Rain = 0
KEN1 240428Z 05003KT 11/10 A2999 RMK A01 T01060100  RH  096%=      5-min Rain = 0
KEN1 240429Z 07004KT 11/10 A2999 RMK A01 T01060100  RH  096%=      5-min Rain = 0
KEN1 240430Z 07005KT 11/10 A30 RMK A01 T01050099  RH  096%=      5-min Rain = 0
KEN1 240431Z 07006KT 11/10 A30 RMK A01 T01050098  RH  096%=      5-min Rain = 0
KEN1 240432Z 08007KT 10/10 A30 RMK A01 T01030096  RH  095%=      5-min Rain = 0
KEN1 240433Z 08009KT 10/09 A30 RMK A01 T01020094  RH  095%=      5-min Rain = 0
KEN1 240434Z 08008KT 10/09 A30 RMK A01 T01010094  RH  095%=      5-min Rain = 0
KEN1 240435Z 08009KT 10/10 A30 RMK A01 T01010095  RH  096%=      5-min Rain = 0
KEN1 240436Z 08008KT 10/10 A30 RMK A01 T01030097  RH  096%=      5-min Rain = 0
KEN1 240437Z 07006KT 10/10 A30 RMK A01 T01040099  RH  097%=      5-min Rain = 0
KEN1 240438Z 07005KT 11/10 A30 RMK A01 T01050099  RH  097%=      5-min Rain = 0
KEN1 240439Z 07005KT 11/10 A30 RMK A01 T01050099  RH  097%=      5-min Rain = 0
KEN1 240440Z 07004KT 11/10 A30 RMK A01 T01050100  RH  097%=      5-min Rain = 0
KEN1 240441Z 09004KT 11/10 A30 RMK A01 T01060100  RH  096%=      5-min Rain = 0
KEN1 240442Z 10003KT 11/10 A2999 RMK A01 T01050100  RH  096%=      5-min Rain = 0
KEN1 240443Z 11004KT 11/10 A2999 RMK A01 T01050099  RH  096%=      5-min Rain = 0
KEN1 240444Z 12005KT 11/10 A2999 RMK A01 T01050098  RH  096%=      5-min Rain = 0
KEN1 240445Z 11004KT 10/10 A2999 RMK A01 T01040098  RH  096%=      5-min Rain = 0
KEN1 240446Z 12002KT 10/10 A2999 RMK A01 T01030097  RH  096%=      5-min Rain = 0
KEN1 240447Z 24003KT 10/10 A2999 RMK A01 T01030097  RH  096%=      5-min Rain = 0
KEN1 240448Z 27007KT 10/10 A2999 RMK A01 T01030096  RH  096%=      5-min Rain = 0
KEN1 240449Z 28008KT 10/10 A2999 RMK A01 T01030097  RH  096%=      5-min Rain = 0
KEN1 240450Z 29005KT 10/10 A2999 RMK A01 T01030097  RH  096%=      5-min Rain = 0
KEN1 240451Z 28002KT 10/10 A2999 RMK A01 T01030098  RH  096%=      5-min Rain = 0
KEN1 240452Z 26000KT 10/10 A2999 RMK A01 T01030098  RH  096%=      5-min Rain = 0
KEN1 240453Z 01000KT 10/10 A2999 RMK A01 T01030098  RH  096%=      5-min Rain = 0
KEN1 240454Z 33001KT 10/10 A2999 RMK A01 T01030098  RH  097%=      5-min Rain = 0
KEN1 240455Z 27001KT 10/10 A2999 RMK A01 T01040098  RH  097%=      5-min Rain = 0
KEN1 240456Z 27000KT 10/10 A2998 RMK A01 T01030098  RH  096%=      5-min Rain = 0
KEN1 240457Z 27000KT 10/10 A2998 RMK A01 T01020097  RH  096%=      5-min Rain = 0
KEN1 240458Z 27001KT 10/10 A2998 RMK A01 T01020097  RH  096%=      5-min Rain = 0
KEN1 240459Z 34001KT 10/10 A2998 RMK A01 T01020097  RH  097%=      5-min Rain = 0

Page generated in 0.0717 seconds.